Persoonlijke hulpmiddelen
Inloggen

MoF Lievelde Ootmarsum

Extensible Markup Language (XML) icon MoF Lievelde - Ootmarsum.gpx — Extensible Markup Language (XML), 148 KB (151927 bytes)

Bestandsinhoud

<?xml version="1.0"?>
<gpx xmlns="http://www.topografix.com/GPX/1/1" version="1.1" creator="afstandmeten.nl" xmlns:xsi="http://www.w3.org/2001/XMLSchema-instance" xsi:schemaLocation="http://www.topografix.com/GPX/1/1 http://www.topografix.com/GPX/1/1/gpx.xsd">
  <trk>
    <name>MoF Lievelde - Ootmarsum</name>
    <desc></desc>
    <trkseg>
      <trkpt lat="52.0121941" lon="6.5940177">
        <time>2017-09-22T00:00:00Z</time>
      </trkpt>
      <trkpt lat="52.01238" lon="6.59394">
        <time>2017-09-22T00:00:01Z</time>
      </trkpt>
      <trkpt lat="52.0124" lon="6.59367">
        <time>2017-09-22T00:00:02Z</time>
      </trkpt>
      <trkpt lat="52.01278" lon="6.59373">
        <time>2017-09-22T00:00:04Z</time>
      </trkpt>
      <trkpt lat="52.01282" lon="6.59374">
        <time>2017-09-22T00:00:04Z</time>
      </trkpt>
      <trkpt lat="52.01282" lon="6.59374">
        <time>2017-09-22T00:00:04Z</time>
      </trkpt>
      <trkpt lat="52.01323" lon="6.59372">
        <time>2017-09-22T00:00:05Z</time>
      </trkpt>
      <trkpt lat="52.01347" lon="6.59375">
        <time>2017-09-22T00:00:06Z</time>
      </trkpt>
      <trkpt lat="52.01376" lon="6.5938">
        <time>2017-09-22T00:00:07Z</time>
      </trkpt>
      <trkpt lat="52.01682" lon="6.59575">
        <time>2017-09-22T00:00:21Z</time>
      </trkpt>
      <trkpt lat="52.01718" lon="6.59603">
        <time>2017-09-22T00:00:22Z</time>
      </trkpt>
      <trkpt lat="52.01789" lon="6.59681">
        <time>2017-09-22T00:00:26Z</time>
      </trkpt>
      <trkpt lat="52.01834" lon="6.59569">
        <time>2017-09-22T00:00:29Z</time>
      </trkpt>
      <trkpt lat="52.01834" lon="6.59569">
        <time>2017-09-22T00:00:29Z</time>
      </trkpt>
      <trkpt lat="52.01924" lon="6.59341">
        <time>2017-09-22T00:00:36Z</time>
      </trkpt>
      <trkpt lat="52.01943" lon="6.59358">
        <time>2017-09-22T00:00:37Z</time>
      </trkpt>
      <trkpt lat="52.01956" lon="6.59364">
        <time>2017-09-22T00:00:37Z</time>
      </trkpt>
      <trkpt lat="52.01963" lon="6.59367">
        <time>2017-09-22T00:00:38Z</time>
      </trkpt>
      <trkpt lat="52.01963" lon="6.59367">
        <time>2017-09-22T00:00:38Z</time>
      </trkpt>
      <trkpt lat="52.02094" lon="6.59409">
        <time>2017-09-22T00:00:43Z</time>
      </trkpt>
      <trkpt lat="52.02187" lon="6.59437">
        <time>2017-09-22T00:00:47Z</time>
      </trkpt>
      <trkpt lat="52.02227" lon="6.59443">
        <time>2017-09-22T00:00:49Z</time>
      </trkpt>
      <trkpt lat="52.02243" lon="6.59441">
        <time>2017-09-22T00:00:49Z</time>
      </trkpt>
      <trkpt lat="52.0227" lon="6.59428">
        <time>2017-09-22T00:00:50Z</time>
      </trkpt>
      <trkpt lat="52.02548" lon="6.59297">
        <time>2017-09-22T00:01:02Z</time>
      </trkpt>
      <trkpt lat="52.02714" lon="6.59216">
        <time>2017-09-22T00:01:09Z</time>
      </trkpt>
      <trkpt lat="52.02714" lon="6.59216">
        <time>2017-09-22T00:01:09Z</time>
      </trkpt>
      <trkpt lat="52.03125" lon="6.5902">
        <time>2017-09-22T00:01:26Z</time>
      </trkpt>
      <trkpt lat="52.03218" lon="6.59011">
        <time>2017-09-22T00:01:30Z</time>
      </trkpt>
      <trkpt lat="52.0329" lon="6.58994">
        <time>2017-09-22T00:01:33Z</time>
      </trkpt>
      <trkpt lat="52.03319" lon="6.58983">
        <time>2017-09-22T00:01:34Z</time>
      </trkpt>
      <trkpt lat="52.03376" lon="6.58943">
        <time>2017-09-22T00:01:37Z</time>
      </trkpt>
      <trkpt lat="52.03382" lon="6.5893">
        <time>2017-09-22T00:01:37Z</time>
      </trkpt>
      <trkpt lat="52.03397" lon="6.58898">
        <time>2017-09-22T00:01:38Z</time>
      </trkpt>
      <trkpt lat="52.03409" lon="6.58794">
        <time>2017-09-22T00:01:41Z</time>
      </trkpt>
      <trkpt lat="52.03418" lon="6.58771">
        <time>2017-09-22T00:01:42Z</time>
      </trkpt>
      <trkpt lat="52.03427" lon="6.5876">
        <time>2017-09-22T00:01:42Z</time>
      </trkpt>
      <trkpt lat="52.0344" lon="6.58745">
        <time>2017-09-22T00:01:43Z</time>
      </trkpt>
      <trkpt lat="52.03528" lon="6.58664">
        <time>2017-09-22T00:01:47Z</time>
      </trkpt>
      <trkpt lat="52.03711" lon="6.58498">
        <time>2017-09-22T00:01:55Z</time>
      </trkpt>
      <trkpt lat="52.03898" lon="6.58414">
        <time>2017-09-22T00:02:03Z</time>
      </trkpt>
      <trkpt lat="52.03919" lon="6.58407">
        <time>2017-09-22T00:02:04Z</time>
      </trkpt>
      <trkpt lat="52.03932" lon="6.58392">
        <time>2017-09-22T00:02:05Z</time>
      </trkpt>
      <trkpt lat="52.03977" lon="6.58322">
        <time>2017-09-22T00:02:07Z</time>
      </trkpt>
      <trkpt lat="52.03988" lon="6.58309">
        <time>2017-09-22T00:02:08Z</time>
      </trkpt>
      <trkpt lat="52.03997" lon="6.583">
        <time>2017-09-22T00:02:08Z</time>
      </trkpt>
      <trkpt lat="52.03999" lon="6.58277">
        <time>2017-09-22T00:02:09Z</time>
      </trkpt>
      <trkpt lat="52.04004" lon="6.58229">
        <time>2017-09-22T00:02:10Z</time>
      </trkpt>
      <trkpt lat="52.04003" lon="6.58198">
        <time>2017-09-22T00:02:11Z</time>
      </trkpt>
      <trkpt lat="52.04003" lon="6.58198">
        <time>2017-09-22T00:02:11Z</time>
      </trkpt>
      <trkpt lat="52.03965" lon="6.57591">
        <time>2017-09-22T00:02:26Z</time>
      </trkpt>
      <trkpt lat="52.03949" lon="6.57349">
        <time>2017-09-22T00:02:32Z</time>
      </trkpt>
      <trkpt lat="52.03939" lon="6.57281">
        <time>2017-09-22T00:02:34Z</time>
      </trkpt>
      <trkpt lat="52.03937" lon="6.57238">
        <time>2017-09-22T00:02:35Z</time>
      </trkpt>
      <trkpt lat="52.03939" lon="6.57196">
        <time>2017-09-22T00:02:36Z</time>
      </trkpt>
      <trkpt lat="52.04023" lon="6.5682">
        <time>2017-09-22T00:02:46Z</time>
      </trkpt>
      <trkpt lat="52.04077" lon="6.56613">
        <time>2017-09-22T00:02:51Z</time>
      </trkpt>
      <trkpt lat="52.04077" lon="6.56613">
        <time>2017-09-22T00:02:51Z</time>
      </trkpt>
      <trkpt lat="52.04109" lon="6.56485">
        <time>2017-09-22T00:02:55Z</time>
      </trkpt>
      <trkpt lat="52.04119" lon="6.5649">
        <time>2017-09-22T00:02:55Z</time>
      </trkpt>
      <trkpt lat="52.0414" lon="6.56503">
        <time>2017-09-22T00:02:56Z</time>
      </trkpt>
      <trkpt lat="52.0414" lon="6.56503">
        <time>2017-09-22T00:02:56Z</time>
      </trkpt>
      <trkpt lat="52.04166" lon="6.5652">
        <time>2017-09-22T00:02:57Z</time>
      </trkpt>
      <trkpt lat="52.04187" lon="6.56496">
        <time>2017-09-22T00:02:58Z</time>
      </trkpt>
      <trkpt lat="52.04187" lon="6.56496">
        <time>2017-09-22T00:02:58Z</time>
      </trkpt>
      <trkpt lat="52.04206" lon="6.56473">
        <time>2017-09-22T00:02:59Z</time>
      </trkpt>
      <trkpt lat="52.04416" lon="6.56289">
        <time>2017-09-22T00:03:09Z</time>
      </trkpt>
      <trkpt lat="52.04625" lon="6.56105">
        <time>2017-09-22T00:03:19Z</time>
      </trkpt>
      <trkpt lat="52.04634" lon="6.56174">
        <time>2017-09-22T00:03:20Z</time>
      </trkpt>
      <trkpt lat="52.04634" lon="6.56174">
        <time>2017-09-22T00:03:20Z</time>
      </trkpt>
      <trkpt lat="52.04643" lon="6.5625">
        <time>2017-09-22T00:03:22Z</time>
      </trkpt>
      <trkpt lat="52.04651" lon="6.56298">
        <time>2017-09-22T00:03:23Z</time>
      </trkpt>
      <trkpt lat="52.04659" lon="6.56319">
        <time>2017-09-22T00:03:24Z</time>
      </trkpt>
      <trkpt lat="52.04671" lon="6.5634">
        <time>2017-09-22T00:03:25Z</time>
      </trkpt>
      <trkpt lat="52.04702" lon="6.56373">
        <time>2017-09-22T00:03:26Z</time>
      </trkpt>
      <trkpt lat="52.04735" lon="6.56404">
        <time>2017-09-22T00:03:28Z</time>
      </trkpt>
      <trkpt lat="52.04762" lon="6.56424">
        <time>2017-09-22T00:03:29Z</time>
      </trkpt>
      <trkpt lat="52.04774" lon="6.56426">
        <time>2017-09-22T00:03:30Z</time>
      </trkpt>
      <trkpt lat="52.04786" lon="6.56425">
        <time>2017-09-22T00:03:30Z</time>
      </trkpt>
      <trkpt lat="52.0484" lon="6.56411">
        <time>2017-09-22T00:03:32Z</time>
      </trkpt>
      <trkpt lat="52.04888" lon="6.56408">
        <time>2017-09-22T00:03:34Z</time>
      </trkpt>
      <trkpt lat="52.04888" lon="6.56408">
        <time>2017-09-22T00:03:34Z</time>
      </trkpt>
      <trkpt lat="52.04972" lon="6.56403">
        <time>2017-09-22T00:03:38Z</time>
      </trkpt>
      <trkpt lat="52.05019" lon="6.56398">
        <time>2017-09-22T00:03:39Z</time>
      </trkpt>
      <trkpt lat="52.05128" lon="6.56398">
        <time>2017-09-22T00:03:44Z</time>
      </trkpt>
      <trkpt lat="52.05197" lon="6.56399">
        <time>2017-09-22T00:03:47Z</time>
      </trkpt>
      <trkpt lat="52.05278" lon="6.56398">
        <time>2017-09-22T00:03:50Z</time>
      </trkpt>
      <trkpt lat="52.05366" lon="6.5636">
        <time>2017-09-22T00:03:54Z</time>
      </trkpt>
      <trkpt lat="52.05529" lon="6.56292">
        <time>2017-09-22T00:04:00Z</time>
      </trkpt>
      <trkpt lat="52.0555" lon="6.56281">
        <time>2017-09-22T00:04:01Z</time>
      </trkpt>
      <trkpt lat="52.05533" lon="6.56231">
        <time>2017-09-22T00:04:03Z</time>
      </trkpt>
      <trkpt lat="52.05521" lon="6.56201">
        <time>2017-09-22T00:04:04Z</time>
      </trkpt>
      <trkpt lat="52.05521" lon="6.56201">
        <time>2017-09-22T00:04:04Z</time>
      </trkpt>
      <trkpt lat="52.05502" lon="6.56147">
        <time>2017-09-22T00:04:05Z</time>
      </trkpt>
      <trkpt lat="52.05501" lon="6.56139">
        <time>2017-09-22T00:04:05Z</time>
      </trkpt>
      <trkpt lat="52.05499" lon="6.56108">
        <time>2017-09-22T00:04:06Z</time>
      </trkpt>
      <trkpt lat="52.055" lon="6.56076">
        <time>2017-09-22T00:04:07Z</time>
      </trkpt>
      <trkpt lat="52.05507" lon="6.56039">
        <time>2017-09-22T00:04:08Z</time>
      </trkpt>
      <trkpt lat="52.0553" lon="6.55942">
        <time>2017-09-22T00:04:11Z</time>
      </trkpt>
      <trkpt lat="52.05532" lon="6.55931">
        <time>2017-09-22T00:04:11Z</time>
      </trkpt>
      <trkpt lat="52.05536" lon="6.55851">
        <time>2017-09-22T00:04:13Z</time>
      </trkpt>
      <trkpt lat="52.05554" lon="6.55757">
        <time>2017-09-22T00:04:15Z</time>
      </trkpt>
      <trkpt lat="52.05578" lon="6.55698">
        <time>2017-09-22T00:04:17Z</time>
      </trkpt>
      <trkpt lat="52.05578" lon="6.55698">
        <time>2017-09-22T00:04:17Z</time>
      </trkpt>
      <trkpt lat="52.05687" lon="6.55442">
        <time>2017-09-22T00:04:25Z</time>
      </trkpt>
      <trkpt lat="52.05695" lon="6.55426">
        <time>2017-09-22T00:04:25Z</time>
      </trkpt>
      <trkpt lat="52.05713" lon="6.55387">
        <time>2017-09-22T00:04:27Z</time>
      </trkpt>
      <trkpt lat="52.05727" lon="6.55346">
        <time>2017-09-22T00:04:28Z</time>
      </trkpt>
      <trkpt lat="52.05731" lon="6.55331">
        <time>2017-09-22T00:04:28Z</time>
      </trkpt>
      <trkpt lat="52.05715" lon="6.5524">
        <time>2017-09-22T00:04:30Z</time>
      </trkpt>
      <trkpt lat="52.0571" lon="6.55213">
        <time>2017-09-22T00:04:31Z</time>
      </trkpt>
      <trkpt lat="52.0571" lon="6.55213">
        <time>2017-09-22T00:04:31Z</time>
      </trkpt>
      <trkpt lat="52.0569" lon="6.55102">
        <time>2017-09-22T00:04:34Z</time>
      </trkpt>
      <trkpt lat="52.05689" lon="6.55045">
        <time>2017-09-22T00:04:35Z</time>
      </trkpt>
      <trkpt lat="52.0569" lon="6.55026">
        <time>2017-09-22T00:04:36Z</time>
      </trkpt>
      <trkpt lat="52.05704" lon="6.54975">
        <time>2017-09-22T00:04:37Z</time>
      </trkpt>
      <trkpt lat="52.05725" lon="6.54892">
        <time>2017-09-22T00:04:40Z</time>
      </trkpt>
      <trkpt lat="52.05728" lon="6.54871">
        <time>2017-09-22T00:04:40Z</time>
      </trkpt>
      <trkpt lat="52.05732" lon="6.54825">
        <time>2017-09-22T00:04:41Z</time>
      </trkpt>
      <trkpt lat="52.05749" lon="6.54788">
        <time>2017-09-22T00:04:42Z</time>
      </trkpt>
      <trkpt lat="52.05786" lon="6.54719">
        <time>2017-09-22T00:04:45Z</time>
      </trkpt>
      <trkpt lat="52.05805" lon="6.54686">
        <time>2017-09-22T00:04:46Z</time>
      </trkpt>
      <trkpt lat="52.05812" lon="6.54678">
        <time>2017-09-22T00:04:46Z</time>
      </trkpt>
      <trkpt lat="52.0587" lon="6.54655">
        <time>2017-09-22T00:04:49Z</time>
      </trkpt>
      <trkpt lat="52.05891" lon="6.54644">
        <time>2017-09-22T00:04:49Z</time>
      </trkpt>
      <trkpt lat="52.05903" lon="6.54637">
        <time>2017-09-22T00:04:50Z</time>
      </trkpt>
      <trkpt lat="52.05931" lon="6.54612">
        <time>2017-09-22T00:04:51Z</time>
      </trkpt>
      <trkpt lat="52.05949" lon="6.54592">
        <time>2017-09-22T00:04:52Z</time>
      </trkpt>
      <trkpt lat="52.05958" lon="6.54579">
        <time>2017-09-22T00:04:53Z</time>
      </trkpt>
      <trkpt lat="52.06085" lon="6.54366">
        <time>2017-09-22T00:05:00Z</time>
      </trkpt>
      <trkpt lat="52.06247" lon="6.54104">
        <time>2017-09-22T00:05:09Z</time>
      </trkpt>
      <trkpt lat="52.06255" lon="6.54099">
        <time>2017-09-22T00:05:10Z</time>
      </trkpt>
      <trkpt lat="52.06265" lon="6.54098">
        <time>2017-09-22T00:05:10Z</time>
      </trkpt>
      <trkpt lat="52.06445" lon="6.54098">
        <time>2017-09-22T00:05:17Z</time>
      </trkpt>
      <trkpt lat="52.06443" lon="6.54139">
        <time>2017-09-22T00:05:18Z</time>
      </trkpt>
      <trkpt lat="52.06509" lon="6.54017">
        <time>2017-09-22T00:05:22Z</time>
      </trkpt>
      <trkpt lat="52.06509" lon="6.54017">
        <time>2017-09-22T00:05:22Z</time>
      </trkpt>
      <trkpt lat="52.0667" lon="6.53719">
        <time>2017-09-22T00:05:32Z</time>
      </trkpt>
      <trkpt lat="52.06787" lon="6.53505">
        <time>2017-09-22T00:05:39Z</time>
      </trkpt>
      <trkpt lat="52.06817" lon="6.53442">
        <time>2017-09-22T00:05:41Z</time>
      </trkpt>
      <trkpt lat="52.06848" lon="6.53379">
        <time>2017-09-22T00:05:43Z</time>
      </trkpt>
      <trkpt lat="52.06874" lon="6.5343">
        <time>2017-09-22T00:05:45Z</time>
      </trkpt>
      <trkpt lat="52.06914" lon="6.53503">
        <time>2017-09-22T00:05:47Z</time>
      </trkpt>
      <trkpt lat="52.06914" lon="6.53503">
        <time>2017-09-22T00:05:47Z</time>
      </trkpt>
      <trkpt lat="52.07166" lon="6.53949">
        <time>2017-09-22T00:06:03Z</time>
      </trkpt>
      <trkpt lat="52.07421" lon="6.54398">
        <time>2017-09-22T00:06:18Z</time>
      </trkpt>
      <trkpt lat="52.07546" lon="6.54612">
        <time>2017-09-22T00:06:25Z</time>
      </trkpt>
      <trkpt lat="52.07592" lon="6.54673">
        <time>2017-09-22T00:06:28Z</time>
      </trkpt>
      <trkpt lat="52.0762" lon="6.54706">
        <time>2017-09-22T00:06:29Z</time>
      </trkpt>
      <trkpt lat="52.07706" lon="6.5479">
        <time>2017-09-22T00:06:33Z</time>
      </trkpt>
      <trkpt lat="52.07711" lon="6.54797">
        <time>2017-09-22T00:06:33Z</time>
      </trkpt>
      <trkpt lat="52.07718" lon="6.5481">
        <time>2017-09-22T00:06:34Z</time>
      </trkpt>
      <trkpt lat="52.07779" lon="6.54939">
        <time>2017-09-22T00:06:38Z</time>
      </trkpt>
      <trkpt lat="52.07826" lon="6.55038">
        <time>2017-09-22T00:06:41Z</time>
      </trkpt>
      <trkpt lat="52.07846" lon="6.55077">
        <time>2017-09-22T00:06:42Z</time>
      </trkpt>
      <trkpt lat="52.07973" lon="6.55381">
        <time>2017-09-22T00:06:51Z</time>
      </trkpt>
      <trkpt lat="52.08001" lon="6.55429">
        <time>2017-09-22T00:06:53Z</time>
      </trkpt>
      <trkpt lat="52.08024" lon="6.55473">
        <time>2017-09-22T00:06:54Z</time>
      </trkpt>
      <trkpt lat="52.08028" lon="6.55493">
        <time>2017-09-22T00:06:55Z</time>
      </trkpt>
      <trkpt lat="52.08028" lon="6.55517">
        <time>2017-09-22T00:06:55Z</time>
      </trkpt>
      <trkpt lat="52.08025" lon="6.55536">
        <time>2017-09-22T00:06:56Z</time>
      </trkpt>
      <trkpt lat="52.07985" lon="6.55681">
        <time>2017-09-22T00:07:00Z</time>
      </trkpt>
      <trkpt lat="52.07963" lon="6.5578">
        <time>2017-09-22T00:07:03Z</time>
      </trkpt>
      <trkpt lat="52.07958" lon="6.55807">
        <time>2017-09-22T00:07:03Z</time>
      </trkpt>
      <trkpt lat="52.07958" lon="6.55814">
        <time>2017-09-22T00:07:03Z</time>
      </trkpt>
      <trkpt lat="52.07955" lon="6.55939">
        <time>2017-09-22T00:07:06Z</time>
      </trkpt>
      <trkpt lat="52.07983" lon="6.55937">
        <time>2017-09-22T00:07:08Z</time>
      </trkpt>
      <trkpt lat="52.08026" lon="6.55926">
        <time>2017-09-22T00:07:09Z</time>
      </trkpt>
      <trkpt lat="52.08041" lon="6.5592">
        <time>2017-09-22T00:07:10Z</time>
      </trkpt>
      <trkpt lat="52.0806" lon="6.55907">
        <time>2017-09-22T00:07:11Z</time>
      </trkpt>
      <trkpt lat="52.08076" lon="6.55894">
        <time>2017-09-22T00:07:12Z</time>
      </trkpt>
      <trkpt lat="52.08083" lon="6.55888">
        <time>2017-09-22T00:07:12Z</time>
      </trkpt>
      <trkpt lat="52.08095" lon="6.55873">
        <time>2017-09-22T00:07:13Z</time>
      </trkpt>
      <trkpt lat="52.08113" lon="6.55847">
        <time>2017-09-22T00:07:13Z</time>
      </trkpt>
      <trkpt lat="52.08144" lon="6.55791">
        <time>2017-09-22T00:07:15Z</time>
      </trkpt>
      <trkpt lat="52.08163" lon="6.55754">
        <time>2017-09-22T00:07:17Z</time>
      </trkpt>
      <trkpt lat="52.0825" lon="6.55589">
        <time>2017-09-22T00:07:22Z</time>
      </trkpt>
      <trkpt lat="52.08259" lon="6.55576">
        <time>2017-09-22T00:07:22Z</time>
      </trkpt>
      <trkpt lat="52.08268" lon="6.55592">
        <time>2017-09-22T00:07:23Z</time>
      </trkpt>
      <trkpt lat="52.08287" lon="6.55614">
        <time>2017-09-22T00:07:24Z</time>
      </trkpt>
      <trkpt lat="52.08287" lon="6.55614">
        <time>2017-09-22T00:07:24Z</time>
      </trkpt>
      <trkpt lat="52.08356" lon="6.55678">
        <time>2017-09-22T00:07:27Z</time>
      </trkpt>
      <trkpt lat="52.08405" lon="6.55726">
        <time>2017-09-22T00:07:29Z</time>
      </trkpt>
      <trkpt lat="52.08493" lon="6.5581">
        <time>2017-09-22T00:07:34Z</time>
      </trkpt>
      <trkpt lat="52.08586" lon="6.55894">
        <time>2017-09-22T00:07:38Z</time>
      </trkpt>
      <trkpt lat="52.08622" lon="6.55935">
        <time>2017-09-22T00:07:40Z</time>
      </trkpt>
      <trkpt lat="52.08643" lon="6.55963">
        <time>2017-09-22T00:07:41Z</time>
      </trkpt>
      <trkpt lat="52.08709" lon="6.56063">
        <time>2017-09-22T00:07:44Z</time>
      </trkpt>
      <trkpt lat="52.08781" lon="6.56168">
        <time>2017-09-22T00:07:48Z</time>
      </trkpt>
      <trkpt lat="52.08788" lon="6.56174">
        <time>2017-09-22T00:07:49Z</time>
      </trkpt>
      <trkpt lat="52.08822" lon="6.56191">
        <time>2017-09-22T00:07:50Z</time>
      </trkpt>
      <trkpt lat="52.08999" lon="6.56231">
        <time>2017-09-22T00:07:57Z</time>
      </trkpt>
      <trkpt lat="52.09094" lon="6.56252">
        <time>2017-09-22T00:08:01Z</time>
      </trkpt>
      <trkpt lat="52.09116" lon="6.56255">
        <time>2017-09-22T00:08:02Z</time>
      </trkpt>
      <trkpt lat="52.09152" lon="6.56244">
        <time>2017-09-22T00:08:04Z</time>
      </trkpt>
      <trkpt lat="52.09297" lon="6.56184">
        <time>2017-09-22T00:08:10Z</time>
      </trkpt>
      <trkpt lat="52.09328" lon="6.56176">
        <time>2017-09-22T00:08:11Z</time>
      </trkpt>
      <trkpt lat="52.09339" lon="6.56176">
        <time>2017-09-22T00:08:11Z</time>
      </trkpt>
      <trkpt lat="52.09351" lon="6.5618">
        <time>2017-09-22T00:08:12Z</time>
      </trkpt>
      <trkpt lat="52.09364" lon="6.56189">
        <time>2017-09-22T00:08:12Z</time>
      </trkpt>
      <trkpt lat="52.09392" lon="6.56222">
        <time>2017-09-22T00:08:14Z</time>
      </trkpt>
      <trkpt lat="52.09514" lon="6.56378">
        <time>2017-09-22T00:08:20Z</time>
      </trkpt>
      <trkpt lat="52.09666" lon="6.56556">
        <time>2017-09-22T00:08:28Z</time>
      </trkpt>
      <trkpt lat="52.09681" lon="6.56574">
        <time>2017-09-22T00:08:28Z</time>
      </trkpt>
      <trkpt lat="52.09697" lon="6.5659">
        <time>2017-09-22T00:08:29Z</time>
      </trkpt>
      <trkpt lat="52.09755" lon="6.56625">
        <time>2017-09-22T00:08:32Z</time>
      </trkpt>
      <trkpt lat="52.09841" lon="6.56675">
        <time>2017-09-22T00:08:35Z</time>
      </trkpt>
      <trkpt lat="52.09886" lon="6.56702">
        <time>2017-09-22T00:08:37Z</time>
      </trkpt>
      <trkpt lat="52.09861" lon="6.56796">
        <time>2017-09-22T00:08:40Z</time>
      </trkpt>
      <trkpt lat="52.09854" lon="6.5682">
        <time>2017-09-22T00:08:41Z</time>
      </trkpt>
      <trkpt lat="52.09854" lon="6.5682">
        <time>2017-09-22T00:08:41Z</time>
      </trkpt>
      <trkpt lat="52.09818" lon="6.56963">
        <time>2017-09-22T00:08:44Z</time>
      </trkpt>
      <trkpt lat="52.09767" lon="6.57154">
        <time>2017-09-22T00:08:50Z</time>
      </trkpt>
      <trkpt lat="52.09728" lon="6.573">
        <time>2017-09-22T00:08:54Z</time>
      </trkpt>
      <trkpt lat="52.09688" lon="6.57447">
        <time>2017-09-22T00:08:58Z</time>
      </trkpt>
      <trkpt lat="52.09661" lon="6.57545">
        <time>2017-09-22T00:09:00Z</time>
      </trkpt>
      <trkpt lat="52.09668" lon="6.57554">
        <time>2017-09-22T00:09:01Z</time>
      </trkpt>
      <trkpt lat="52.09673" lon="6.57567">
        <time>2017-09-22T00:09:01Z</time>
      </trkpt>
      <trkpt lat="52.0968" lon="6.57635">
        <time>2017-09-22T00:09:03Z</time>
      </trkpt>
      <trkpt lat="52.0969" lon="6.57753">
        <time>2017-09-22T00:09:06Z</time>
      </trkpt>
      <trkpt lat="52.09691" lon="6.57765">
        <time>2017-09-22T00:09:06Z</time>
      </trkpt>
      <trkpt lat="52.09691" lon="6.57765">
        <time>2017-09-22T00:09:06Z</time>
      </trkpt>
      <trkpt lat="52.0971" lon="6.5796">
        <time>2017-09-22T00:09:11Z</time>
      </trkpt>
      <trkpt lat="52.09736" lon="6.5827">
        <time>2017-09-22T00:09:19Z</time>
      </trkpt>
      <trkpt lat="52.09747" lon="6.58407">
        <time>2017-09-22T00:09:22Z</time>
      </trkpt>
      <trkpt lat="52.09797" lon="6.58438">
        <time>2017-09-22T00:09:24Z</time>
      </trkpt>
      <trkpt lat="52.09797" lon="6.58438">
        <time>2017-09-22T00:09:24Z</time>
      </trkpt>
      <trkpt lat="52.09918" lon="6.58514">
        <time>2017-09-22T00:09:29Z</time>
      </trkpt>
      <trkpt lat="52.10274" lon="6.58726">
        <time>2017-09-22T00:09:45Z</time>
      </trkpt>
      <trkpt lat="52.10582" lon="6.58908">
        <time>2017-09-22T00:09:58Z</time>
      </trkpt>
      <trkpt lat="52.10594" lon="6.58917">
        <time>2017-09-22T00:09:59Z</time>
      </trkpt>
      <trkpt lat="52.10599" lon="6.58923">
        <time>2017-09-22T00:09:59Z</time>
      </trkpt>
      <trkpt lat="52.10704" lon="6.59095">
        <time>2017-09-22T00:10:05Z</time>
      </trkpt>
      <trkpt lat="52.10731" lon="6.5907">
        <time>2017-09-22T00:10:06Z</time>
      </trkpt>
      <trkpt lat="52.10749" lon="6.59047">
        <time>2017-09-22T00:10:07Z</time>
      </trkpt>
      <trkpt lat="52.10749" lon="6.59047">
        <time>2017-09-22T00:10:07Z</time>
      </trkpt>
      <trkpt lat="52.10808" lon="6.58991">
        <time>2017-09-22T00:10:10Z</time>
      </trkpt>
      <trkpt lat="52.10819" lon="6.58981">
        <time>2017-09-22T00:10:10Z</time>
      </trkpt>
      <trkpt lat="52.10842" lon="6.58974">
        <time>2017-09-22T00:10:11Z</time>
      </trkpt>
      <trkpt lat="52.10977" lon="6.5896">
        <time>2017-09-22T00:10:17Z</time>
      </trkpt>
      <trkpt lat="52.10998" lon="6.58969">
        <time>2017-09-22T00:10:18Z</time>
      </trkpt>
      <trkpt lat="52.11081" lon="6.59012">
        <time>2017-09-22T00:10:21Z</time>
      </trkpt>
      <trkpt lat="52.11137" lon="6.59046">
        <time>2017-09-22T00:10:24Z</time>
      </trkpt>
      <trkpt lat="52.11167" lon="6.58927">
        <time>2017-09-22T00:10:27Z</time>
      </trkpt>
      <trkpt lat="52.11167" lon="6.58927">
        <time>2017-09-22T00:10:27Z</time>
      </trkpt>
      <trkpt lat="52.11201" lon="6.58788">
        <time>2017-09-22T00:10:31Z</time>
      </trkpt>
      <trkpt lat="52.11204" lon="6.58764">
        <time>2017-09-22T00:10:31Z</time>
      </trkpt>
      <trkpt lat="52.11208" lon="6.58709">
        <time>2017-09-22T00:10:33Z</time>
      </trkpt>
      <trkpt lat="52.11323" lon="6.58725">
        <time>2017-09-22T00:10:37Z</time>
      </trkpt>
      <trkpt lat="52.11329" lon="6.58726">
        <time>2017-09-22T00:10:37Z</time>
      </trkpt>
      <trkpt lat="52.11329" lon="6.58726">
        <time>2017-09-22T00:10:37Z</time>
      </trkpt>
      <trkpt lat="52.11346" lon="6.58734">
        <time>2017-09-22T00:10:38Z</time>
      </trkpt>
      <trkpt lat="52.11368" lon="6.58753">
        <time>2017-09-22T00:10:39Z</time>
      </trkpt>
      <trkpt lat="52.114" lon="6.58786">
        <time>2017-09-22T00:10:41Z</time>
      </trkpt>
      <trkpt lat="52.1141" lon="6.58793">
        <time>2017-09-22T00:10:41Z</time>
      </trkpt>
      <trkpt lat="52.11424" lon="6.58799">
        <time>2017-09-22T00:10:42Z</time>
      </trkpt>
      <trkpt lat="52.11433" lon="6.58802">
        <time>2017-09-22T00:10:42Z</time>
      </trkpt>
      <trkpt lat="52.11445" lon="6.58799">
        <time>2017-09-22T00:10:43Z</time>
      </trkpt>
      <trkpt lat="52.11496" lon="6.58765">
        <time>2017-09-22T00:10:45Z</time>
      </trkpt>
      <trkpt lat="52.11515" lon="6.58753">
        <time>2017-09-22T00:10:46Z</time>
      </trkpt>
      <trkpt lat="52.11525" lon="6.58756">
        <time>2017-09-22T00:10:46Z</time>
      </trkpt>
      <trkpt lat="52.11534" lon="6.58771">
        <time>2017-09-22T00:10:47Z</time>
      </trkpt>
      <trkpt lat="52.1163" lon="6.59033">
        <time>2017-09-22T00:10:54Z</time>
      </trkpt>
      <trkpt lat="52.11646" lon="6.59064">
        <time>2017-09-22T00:10:55Z</time>
      </trkpt>
      <trkpt lat="52.11669" lon="6.59086">
        <time>2017-09-22T00:10:56Z</time>
      </trkpt>
      <trkpt lat="52.11692" lon="6.59099">
        <time>2017-09-22T00:10:57Z</time>
      </trkpt>
      <trkpt lat="52.12002" lon="6.59174">
        <time>2017-09-22T00:11:10Z</time>
      </trkpt>
      <trkpt lat="52.12023" lon="6.5918">
        <time>2017-09-22T00:11:11Z</time>
      </trkpt>
      <trkpt lat="52.12043" lon="6.5919">
        <time>2017-09-22T00:11:12Z</time>
      </trkpt>
      <trkpt lat="52.12059" lon="6.59203">
        <time>2017-09-22T00:11:12Z</time>
      </trkpt>
      <trkpt lat="52.12059" lon="6.59203">
        <time>2017-09-22T00:11:12Z</time>
      </trkpt>
      <trkpt lat="52.12094" lon="6.59246">
        <time>2017-09-22T00:11:14Z</time>
      </trkpt>
      <trkpt lat="52.12116" lon="6.59271">
        <time>2017-09-22T00:11:15Z</time>
      </trkpt>
      <trkpt lat="52.12132" lon="6.59282">
        <time>2017-09-22T00:11:16Z</time>
      </trkpt>
      <trkpt lat="52.12172" lon="6.59294">
        <time>2017-09-22T00:11:18Z</time>
      </trkpt>
      <trkpt lat="52.12224" lon="6.59308">
        <time>2017-09-22T00:11:20Z</time>
      </trkpt>
      <trkpt lat="52.12242" lon="6.59311">
        <time>2017-09-22T00:11:20Z</time>
      </trkpt>
      <trkpt lat="52.1225" lon="6.59307">
        <time>2017-09-22T00:11:21Z</time>
      </trkpt>
      <trkpt lat="52.12264" lon="6.59295">
        <time>2017-09-22T00:11:21Z</time>
      </trkpt>
      <trkpt lat="52.12273" lon="6.5927">
        <time>2017-09-22T00:11:22Z</time>
      </trkpt>
      <trkpt lat="52.12302" lon="6.59064">
        <time>2017-09-22T00:11:27Z</time>
      </trkpt>
      <trkpt lat="52.12303" lon="6.59057">
        <time>2017-09-22T00:11:28Z</time>
      </trkpt>
      <trkpt lat="52.12303" lon="6.59057">
        <time>2017-09-22T00:11:28Z</time>
      </trkpt>
      <trkpt lat="52.12308" lon="6.59037">
        <time>2017-09-22T00:11:28Z</time>
      </trkpt>
      <trkpt lat="52.12316" lon="6.59013">
        <time>2017-09-22T00:11:29Z</time>
      </trkpt>
      <trkpt lat="52.12324" lon="6.58998">
        <time>2017-09-22T00:11:29Z</time>
      </trkpt>
      <trkpt lat="52.12338" lon="6.58978">
        <time>2017-09-22T00:11:30Z</time>
      </trkpt>
      <trkpt lat="52.12403" lon="6.58895">
        <time>2017-09-22T00:11:33Z</time>
      </trkpt>
      <trkpt lat="52.12417" lon="6.58874">
        <time>2017-09-22T00:11:34Z</time>
      </trkpt>
      <trkpt lat="52.12429" lon="6.58849">
        <time>2017-09-22T00:11:35Z</time>
      </trkpt>
      <trkpt lat="52.12439" lon="6.58821">
        <time>2017-09-22T00:11:36Z</time>
      </trkpt>
      <trkpt lat="52.12449" lon="6.58788">
        <time>2017-09-22T00:11:37Z</time>
      </trkpt>
      <trkpt lat="52.12467" lon="6.58685">
        <time>2017-09-22T00:11:39Z</time>
      </trkpt>
      <trkpt lat="52.12467" lon="6.58685">
        <time>2017-09-22T00:11:39Z</time>
      </trkpt>
      <trkpt lat="52.12525" lon="6.58372">
        <time>2017-09-22T00:11:47Z</time>
      </trkpt>
      <trkpt lat="52.12513" lon="6.58355">
        <time>2017-09-22T00:11:48Z</time>
      </trkpt>
      <trkpt lat="52.12504" lon="6.58337">
        <time>2017-09-22T00:11:49Z</time>
      </trkpt>
      <trkpt lat="52.12502" lon="6.58331">
        <time>2017-09-22T00:11:49Z</time>
      </trkpt>
      <trkpt lat="52.12502" lon="6.58331">
        <time>2017-09-22T00:11:49Z</time>
      </trkpt>
      <trkpt lat="52.12488" lon="6.58291">
        <time>2017-09-22T00:11:50Z</time>
      </trkpt>
      <trkpt lat="52.12473" lon="6.58225">
        <time>2017-09-22T00:11:52Z</time>
      </trkpt>
      <trkpt lat="52.12465" lon="6.58202">
        <time>2017-09-22T00:11:52Z</time>
      </trkpt>
      <trkpt lat="52.1246" lon="6.5814">
        <time>2017-09-22T00:11:54Z</time>
      </trkpt>
      <trkpt lat="52.12384" lon="6.57432">
        <time>2017-09-22T00:12:12Z</time>
      </trkpt>
      <trkpt lat="52.12368" lon="6.57308">
        <time>2017-09-22T00:12:15Z</time>
      </trkpt>
      <trkpt lat="52.12359" lon="6.57257">
        <time>2017-09-22T00:12:16Z</time>
      </trkpt>
      <trkpt lat="52.12354" lon="6.57221">
        <time>2017-09-22T00:12:17Z</time>
      </trkpt>
      <trkpt lat="52.12366" lon="6.57216">
        <time>2017-09-22T00:12:18Z</time>
      </trkpt>
      <trkpt lat="52.12384" lon="6.57204">
        <time>2017-09-22T00:12:19Z</time>
      </trkpt>
      <trkpt lat="52.12401" lon="6.57187">
        <time>2017-09-22T00:12:19Z</time>
      </trkpt>
      <trkpt lat="52.12408" lon="6.57177">
        <time>2017-09-22T00:12:20Z</time>
      </trkpt>
      <trkpt lat="52.12408" lon="6.57177">
        <time>2017-09-22T00:12:20Z</time>
      </trkpt>
      <trkpt lat="52.12426" lon="6.57131">
        <time>2017-09-22T00:12:21Z</time>
      </trkpt>
      <trkpt lat="52.12499" lon="6.56943">
        <time>2017-09-22T00:12:27Z</time>
      </trkpt>
      <trkpt lat="52.1258" lon="6.56701">
        <time>2017-09-22T00:12:33Z</time>
      </trkpt>
      <trkpt lat="52.126" lon="6.56622">
        <time>2017-09-22T00:12:36Z</time>
      </trkpt>
      <trkpt lat="52.12606" lon="6.56583">
        <time>2017-09-22T00:12:37Z</time>
      </trkpt>
      <trkpt lat="52.12616" lon="6.56503">
        <time>2017-09-22T00:12:39Z</time>
      </trkpt>
      <trkpt lat="52.12626" lon="6.56461">
        <time>2017-09-22T00:12:40Z</time>
      </trkpt>
      <trkpt lat="52.12636" lon="6.56437">
        <time>2017-09-22T00:12:40Z</time>
      </trkpt>
      <trkpt lat="52.12661" lon="6.5639">
        <time>2017-09-22T00:12:42Z</time>
      </trkpt>
      <trkpt lat="52.12702" lon="6.56322">
        <time>2017-09-22T00:12:44Z</time>
      </trkpt>
      <trkpt lat="52.12721" lon="6.56298">
        <time>2017-09-22T00:12:45Z</time>
      </trkpt>
      <trkpt lat="52.12744" lon="6.56274">
        <time>2017-09-22T00:12:46Z</time>
      </trkpt>
      <trkpt lat="52.12757" lon="6.56265">
        <time>2017-09-22T00:12:47Z</time>
      </trkpt>
      <trkpt lat="52.12808" lon="6.56241">
        <time>2017-09-22T00:12:49Z</time>
      </trkpt>
      <trkpt lat="52.12836" lon="6.56228">
        <time>2017-09-22T00:12:50Z</time>
      </trkpt>
      <trkpt lat="52.12836" lon="6.56228">
        <time>2017-09-22T00:12:50Z</time>
      </trkpt>
      <trkpt lat="52.1288" lon="6.56204">
        <time>2017-09-22T00:12:52Z</time>
      </trkpt>
      <trkpt lat="52.12906" lon="6.56183">
        <time>2017-09-22T00:12:53Z</time>
      </trkpt>
      <trkpt lat="52.12917" lon="6.56172">
        <time>2017-09-22T00:12:54Z</time>
      </trkpt>
      <trkpt lat="52.12925" lon="6.5616">
        <time>2017-09-22T00:12:54Z</time>
      </trkpt>
      <trkpt lat="52.12936" lon="6.5614">
        <time>2017-09-22T00:12:55Z</time>
      </trkpt>
      <trkpt lat="52.12961" lon="6.56075">
        <time>2017-09-22T00:12:57Z</time>
      </trkpt>
      <trkpt lat="52.13023" lon="6.55906">
        <time>2017-09-22T00:13:02Z</time>
      </trkpt>
      <trkpt lat="52.13066" lon="6.55781">
        <time>2017-09-22T00:13:05Z</time>
      </trkpt>
      <trkpt lat="52.13082" lon="6.5572">
        <time>2017-09-22T00:13:07Z</time>
      </trkpt>
      <trkpt lat="52.13096" lon="6.55633">
        <time>2017-09-22T00:13:09Z</time>
      </trkpt>
      <trkpt lat="52.13109" lon="6.55557">
        <time>2017-09-22T00:13:11Z</time>
      </trkpt>
      <trkpt lat="52.13129" lon="6.55492">
        <time>2017-09-22T00:13:13Z</time>
      </trkpt>
      <trkpt lat="52.13155" lon="6.55424">
        <time>2017-09-22T00:13:15Z</time>
      </trkpt>
      <trkpt lat="52.1318" lon="6.55366">
        <time>2017-09-22T00:13:17Z</time>
      </trkpt>
      <trkpt lat="52.13223" lon="6.55286">
        <time>2017-09-22T00:13:19Z</time>
      </trkpt>
      <trkpt lat="52.13234" lon="6.55268">
        <time>2017-09-22T00:13:20Z</time>
      </trkpt>
      <trkpt lat="52.13234" lon="6.55268">
        <time>2017-09-22T00:13:20Z</time>
      </trkpt>
      <trkpt lat="52.13254" lon="6.55237">
        <time>2017-09-22T00:13:21Z</time>
      </trkpt>
      <trkpt lat="52.13288" lon="6.552">
        <time>2017-09-22T00:13:23Z</time>
      </trkpt>
      <trkpt lat="52.1334" lon="6.55165">
        <time>2017-09-22T00:13:25Z</time>
      </trkpt>
      <trkpt lat="52.13399" lon="6.55126">
        <time>2017-09-22T00:13:28Z</time>
      </trkpt>
      <trkpt lat="52.13416" lon="6.55112">
        <time>2017-09-22T00:13:28Z</time>
      </trkpt>
      <trkpt lat="52.13439" lon="6.55083">
        <time>2017-09-22T00:13:30Z</time>
      </trkpt>
      <trkpt lat="52.13455" lon="6.55052">
        <time>2017-09-22T00:13:31Z</time>
      </trkpt>
      <trkpt lat="52.13468" lon="6.55005">
        <time>2017-09-22T00:13:32Z</time>
      </trkpt>
      <trkpt lat="52.13511" lon="6.54804">
        <time>2017-09-22T00:13:37Z</time>
      </trkpt>
      <trkpt lat="52.13528" lon="6.54726">
        <time>2017-09-22T00:13:39Z</time>
      </trkpt>
      <trkpt lat="52.13535" lon="6.54673">
        <time>2017-09-22T00:13:41Z</time>
      </trkpt>
      <trkpt lat="52.13551" lon="6.54484">
        <time>2017-09-22T00:13:45Z</time>
      </trkpt>
      <trkpt lat="52.13551" lon="6.54457">
        <time>2017-09-22T00:13:46Z</time>
      </trkpt>
      <trkpt lat="52.1351" lon="6.54301">
        <time>2017-09-22T00:13:50Z</time>
      </trkpt>
      <trkpt lat="52.13477" lon="6.54182">
        <time>2017-09-22T00:13:53Z</time>
      </trkpt>
      <trkpt lat="52.13475" lon="6.5416">
        <time>2017-09-22T00:13:54Z</time>
      </trkpt>
      <trkpt lat="52.13475" lon="6.54117">
        <time>2017-09-22T00:13:55Z</time>
      </trkpt>
      <trkpt lat="52.1348" lon="6.54078">
        <time>2017-09-22T00:13:56Z</time>
      </trkpt>
      <trkpt lat="52.13491" lon="6.54038">
        <time>2017-09-22T00:13:57Z</time>
      </trkpt>
      <trkpt lat="52.13549" lon="6.53901">
        <time>2017-09-22T00:14:01Z</time>
      </trkpt>
      <trkpt lat="52.13659" lon="6.53642">
        <time>2017-09-22T00:14:09Z</time>
      </trkpt>
      <trkpt lat="52.13659" lon="6.53642">
        <time>2017-09-22T00:14:09Z</time>
      </trkpt>
      <trkpt lat="52.13698" lon="6.53548">
        <time>2017-09-22T00:14:12Z</time>
      </trkpt>
      <trkpt lat="52.13787" lon="6.53347">
        <time>2017-09-22T00:14:18Z</time>
      </trkpt>
      <trkpt lat="52.13791" lon="6.53349">
        <time>2017-09-22T00:14:18Z</time>
      </trkpt>
      <trkpt lat="52.13807" lon="6.53355">
        <time>2017-09-22T00:14:19Z</time>
      </trkpt>
      <trkpt lat="52.13807" lon="6.53355">
        <time>2017-09-22T00:14:19Z</time>
      </trkpt>
      <trkpt lat="52.13922" lon="6.53394">
        <time>2017-09-22T00:14:24Z</time>
      </trkpt>
      <trkpt lat="52.14031" lon="6.53436">
        <time>2017-09-22T00:14:28Z</time>
      </trkpt>
      <trkpt lat="52.14067" lon="6.53448">
        <time>2017-09-22T00:14:30Z</time>
      </trkpt>
      <trkpt lat="52.14158" lon="6.53483">
        <time>2017-09-22T00:14:34Z</time>
      </trkpt>
      <trkpt lat="52.14329" lon="6.53539">
        <time>2017-09-22T00:14:41Z</time>
      </trkpt>
      <trkpt lat="52.14509" lon="6.53563">
        <time>2017-09-22T00:14:48Z</time>
      </trkpt>
      <trkpt lat="52.14543" lon="6.53508">
        <time>2017-09-22T00:14:50Z</time>
      </trkpt>
      <trkpt lat="52.14555" lon="6.53489">
        <time>2017-09-22T00:14:51Z</time>
      </trkpt>
      <trkpt lat="52.14555" lon="6.53489">
        <time>2017-09-22T00:14:51Z</time>
      </trkpt>
      <trkpt lat="52.14596" lon="6.53422">
        <time>2017-09-22T00:14:53Z</time>
      </trkpt>
      <trkpt lat="52.14722" lon="6.53233">
        <time>2017-09-22T00:15:00Z</time>
      </trkpt>
      <trkpt lat="52.14869" lon="6.52994">
        <time>2017-09-22T00:15:08Z</time>
      </trkpt>
      <trkpt lat="52.14966" lon="6.5275">
        <time>2017-09-22T00:15:15Z</time>
      </trkpt>
      <trkpt lat="52.15" lon="6.52623">
        <time>2017-09-22T00:15:19Z</time>
      </trkpt>
      <trkpt lat="52.15071" lon="6.52643">
        <time>2017-09-22T00:15:22Z</time>
      </trkpt>
      <trkpt lat="52.15071" lon="6.52643">
        <time>2017-09-22T00:15:22Z</time>
      </trkpt>
      <trkpt lat="52.15263" lon="6.52694">
        <time>2017-09-22T00:15:30Z</time>
      </trkpt>
      <trkpt lat="52.1533" lon="6.52711">
        <time>2017-09-22T00:15:32Z</time>
      </trkpt>
      <trkpt lat="52.15421" lon="6.52742">
        <time>2017-09-22T00:15:36Z</time>
      </trkpt>
      <trkpt lat="52.15466" lon="6.5276">
        <time>2017-09-22T00:15:38Z</time>
      </trkpt>
      <trkpt lat="52.15501" lon="6.52774">
        <time>2017-09-22T00:15:39Z</time>
      </trkpt>
      <trkpt lat="52.15533" lon="6.52789">
        <time>2017-09-22T00:15:41Z</time>
      </trkpt>
      <trkpt lat="52.15565" lon="6.52812">
        <time>2017-09-22T00:15:42Z</time>
      </trkpt>
      <trkpt lat="52.15634" lon="6.5288">
        <time>2017-09-22T00:15:46Z</time>
      </trkpt>
      <trkpt lat="52.15634" lon="6.5288">
        <time>2017-09-22T00:15:46Z</time>
      </trkpt>
      <trkpt lat="52.15714" lon="6.52955">
        <time>2017-09-22T00:15:49Z</time>
      </trkpt>
      <trkpt lat="52.15738" lon="6.52968">
        <time>2017-09-22T00:15:50Z</time>
      </trkpt>
      <trkpt lat="52.15761" lon="6.52976">
        <time>2017-09-22T00:15:51Z</time>
      </trkpt>
      <trkpt lat="52.15793" lon="6.52979">
        <time>2017-09-22T00:15:53Z</time>
      </trkpt>
      <trkpt lat="52.15814" lon="6.52977">
        <time>2017-09-22T00:15:53Z</time>
      </trkpt>
      <trkpt lat="52.1584" lon="6.52969">
        <time>2017-09-22T00:15:54Z</time>
      </trkpt>
      <trkpt lat="52.15866" lon="6.52962">
        <time>2017-09-22T00:15:56Z</time>
      </trkpt>
      <trkpt lat="52.16025" lon="6.52891">
        <time>2017-09-22T00:16:02Z</time>
      </trkpt>
      <trkpt lat="52.16069" lon="6.52871">
        <time>2017-09-22T00:16:04Z</time>
      </trkpt>
      <trkpt lat="52.16069" lon="6.52871">
        <time>2017-09-22T00:16:04Z</time>
      </trkpt>
      <trkpt lat="52.16185" lon="6.5282">
        <time>2017-09-22T00:16:09Z</time>
      </trkpt>
      <trkpt lat="52.16302" lon="6.5276">
        <time>2017-09-22T00:16:14Z</time>
      </trkpt>
      <trkpt lat="52.16515" lon="6.52642">
        <time>2017-09-22T00:16:23Z</time>
      </trkpt>
      <trkpt lat="52.16559" lon="6.52622">
        <time>2017-09-22T00:16:25Z</time>
      </trkpt>
      <trkpt lat="52.16559" lon="6.52622">
        <time>2017-09-22T00:16:25Z</time>
      </trkpt>
      <trkpt lat="52.16602" lon="6.52611">
        <time>2017-09-22T00:16:27Z</time>
      </trkpt>
      <trkpt lat="52.16619" lon="6.52609">
        <time>2017-09-22T00:16:27Z</time>
      </trkpt>
      <trkpt lat="52.16633" lon="6.52614">
        <time>2017-09-22T00:16:28Z</time>
      </trkpt>
      <trkpt lat="52.16644" lon="6.52623">
        <time>2017-09-22T00:16:28Z</time>
      </trkpt>
      <trkpt lat="52.16699" lon="6.52674">
        <time>2017-09-22T00:16:31Z</time>
      </trkpt>
      <trkpt lat="52.16773" lon="6.5272">
        <time>2017-09-22T00:16:34Z</time>
      </trkpt>
      <trkpt lat="52.16824" lon="6.52754">
        <time>2017-09-22T00:16:36Z</time>
      </trkpt>
      <trkpt lat="52.16851" lon="6.52771">
        <time>2017-09-22T00:16:38Z</time>
      </trkpt>
      <trkpt lat="52.16859" lon="6.52773">
        <time>2017-09-22T00:16:38Z</time>
      </trkpt>
      <trkpt lat="52.16877" lon="6.52771">
        <time>2017-09-22T00:16:39Z</time>
      </trkpt>
      <trkpt lat="52.16935" lon="6.52757">
        <time>2017-09-22T00:16:41Z</time>
      </trkpt>
      <trkpt lat="52.16943" lon="6.52755">
        <time>2017-09-22T00:16:41Z</time>
      </trkpt>
      <trkpt lat="52.16969" lon="6.52745">
        <time>2017-09-22T00:16:42Z</time>
      </trkpt>
      <trkpt lat="52.16982" lon="6.52738">
        <time>2017-09-22T00:16:43Z</time>
      </trkpt>
      <trkpt lat="52.17017" lon="6.52716">
        <time>2017-09-22T00:16:44Z</time>
      </trkpt>
      <trkpt lat="52.17075" lon="6.52697">
        <time>2017-09-22T00:16:47Z</time>
      </trkpt>
      <trkpt lat="52.1711" lon="6.52682">
        <time>2017-09-22T00:16:48Z</time>
      </trkpt>
      <trkpt lat="52.17146" lon="6.52664">
        <time>2017-09-22T00:16:50Z</time>
      </trkpt>
      <trkpt lat="52.17164" lon="6.52651">
        <time>2017-09-22T00:16:51Z</time>
      </trkpt>
      <trkpt lat="52.17185" lon="6.52642">
        <time>2017-09-22T00:16:52Z</time>
      </trkpt>
      <trkpt lat="52.172" lon="6.52643">
        <time>2017-09-22T00:16:52Z</time>
      </trkpt>
      <trkpt lat="52.17214" lon="6.5265">
        <time>2017-09-22T00:16:53Z</time>
      </trkpt>
      <trkpt lat="52.17251" lon="6.52686">
        <time>2017-09-22T00:16:54Z</time>
      </trkpt>
      <trkpt lat="52.17302" lon="6.52734">
        <time>2017-09-22T00:16:57Z</time>
      </trkpt>
      <trkpt lat="52.17342" lon="6.52776">
        <time>2017-09-22T00:16:59Z</time>
      </trkpt>
      <trkpt lat="52.17388" lon="6.52825">
        <time>2017-09-22T00:17:01Z</time>
      </trkpt>
      <trkpt lat="52.1742" lon="6.52856">
        <time>2017-09-22T00:17:03Z</time>
      </trkpt>
      <trkpt lat="52.17441" lon="6.52872">
        <time>2017-09-22T00:17:03Z</time>
      </trkpt>
      <trkpt lat="52.17477" lon="6.52892">
        <time>2017-09-22T00:17:05Z</time>
      </trkpt>
      <trkpt lat="52.17517" lon="6.52909">
        <time>2017-09-22T00:17:07Z</time>
      </trkpt>
      <trkpt lat="52.17538" lon="6.52925">
        <time>2017-09-22T00:17:08Z</time>
      </trkpt>
      <trkpt lat="52.17557" lon="6.52952">
        <time>2017-09-22T00:17:09Z</time>
      </trkpt>
      <trkpt lat="52.17596" lon="6.53034">
        <time>2017-09-22T00:17:11Z</time>
      </trkpt>
      <trkpt lat="52.17606" lon="6.53064">
        <time>2017-09-22T00:17:12Z</time>
      </trkpt>
      <trkpt lat="52.17633" lon="6.53162">
        <time>2017-09-22T00:17:15Z</time>
      </trkpt>
      <trkpt lat="52.17639" lon="6.53182">
        <time>2017-09-22T00:17:15Z</time>
      </trkpt>
      <trkpt lat="52.17654" lon="6.53212">
        <time>2017-09-22T00:17:16Z</time>
      </trkpt>
      <trkpt lat="52.17675" lon="6.53246">
        <time>2017-09-22T00:17:17Z</time>
      </trkpt>
      <trkpt lat="52.17715" lon="6.53289">
        <time>2017-09-22T00:17:19Z</time>
      </trkpt>
      <trkpt lat="52.17754" lon="6.53329">
        <time>2017-09-22T00:17:21Z</time>
      </trkpt>
      <trkpt lat="52.1776" lon="6.53336">
        <time>2017-09-22T00:17:22Z</time>
      </trkpt>
      <trkpt lat="52.17769" lon="6.53354">
        <time>2017-09-22T00:17:22Z</time>
      </trkpt>
      <trkpt lat="52.17781" lon="6.53405">
        <time>2017-09-22T00:17:23Z</time>
      </trkpt>
      <trkpt lat="52.17795" lon="6.53448">
        <time>2017-09-22T00:17:25Z</time>
      </trkpt>
      <trkpt lat="52.17814" lon="6.53476">
        <time>2017-09-22T00:17:26Z</time>
      </trkpt>
      <trkpt lat="52.17883" lon="6.5354">
        <time>2017-09-22T00:17:29Z</time>
      </trkpt>
      <trkpt lat="52.17939" lon="6.53576">
        <time>2017-09-22T00:17:31Z</time>
      </trkpt>
      <trkpt lat="52.1797" lon="6.5359">
        <time>2017-09-22T00:17:33Z</time>
      </trkpt>
      <trkpt lat="52.18019" lon="6.53611">
        <time>2017-09-22T00:17:35Z</time>
      </trkpt>
      <trkpt lat="52.18051" lon="6.53623">
        <time>2017-09-22T00:17:36Z</time>
      </trkpt>
      <trkpt lat="52.18069" lon="6.5363">
        <time>2017-09-22T00:17:37Z</time>
      </trkpt>
      <trkpt lat="52.18105" lon="6.53662">
        <time>2017-09-22T00:17:38Z</time>
      </trkpt>
      <trkpt lat="52.18128" lon="6.53687">
        <time>2017-09-22T00:17:40Z</time>
      </trkpt>
      <trkpt lat="52.18162" lon="6.53711">
        <time>2017-09-22T00:17:41Z</time>
      </trkpt>
      <trkpt lat="52.18218" lon="6.53751">
        <time>2017-09-22T00:17:44Z</time>
      </trkpt>
      <trkpt lat="52.1827" lon="6.53786">
        <time>2017-09-22T00:17:46Z</time>
      </trkpt>
      <trkpt lat="52.18368" lon="6.53843">
        <time>2017-09-22T00:17:50Z</time>
      </trkpt>
      <trkpt lat="52.18562" lon="6.53952">
        <time>2017-09-22T00:17:58Z</time>
      </trkpt>
      <trkpt lat="52.18766" lon="6.54073">
        <time>2017-09-22T00:18:07Z</time>
      </trkpt>
      <trkpt lat="52.19229" lon="6.54344">
        <time>2017-09-22T00:18:27Z</time>
      </trkpt>
      <trkpt lat="52.19243" lon="6.54355">
        <time>2017-09-22T00:18:28Z</time>
      </trkpt>
      <trkpt lat="52.1925" lon="6.54365">
        <time>2017-09-22T00:18:28Z</time>
      </trkpt>
      <trkpt lat="52.19377" lon="6.5457">
        <time>2017-09-22T00:18:35Z</time>
      </trkpt>
      <trkpt lat="52.1942" lon="6.54642">
        <time>2017-09-22T00:18:38Z</time>
      </trkpt>
      <trkpt lat="52.19504" lon="6.54779">
        <time>2017-09-22T00:18:43Z</time>
      </trkpt>
      <trkpt lat="52.19504" lon="6.54779">
        <time>2017-09-22T00:18:43Z</time>
      </trkpt>
      <trkpt lat="52.19556" lon="6.54864">
        <time>2017-09-22T00:18:46Z</time>
      </trkpt>
      <trkpt lat="52.19569" lon="6.54885">
        <time>2017-09-22T00:18:46Z</time>
      </trkpt>
      <trkpt lat="52.19518" lon="6.54962">
        <time>2017-09-22T00:18:49Z</time>
      </trkpt>
      <trkpt lat="52.1951" lon="6.54981">
        <time>2017-09-22T00:18:50Z</time>
      </trkpt>
      <trkpt lat="52.19506" lon="6.55002">
        <time>2017-09-22T00:18:50Z</time>
      </trkpt>
      <trkpt lat="52.19494" lon="6.55116">
        <time>2017-09-22T00:18:53Z</time>
      </trkpt>
      <trkpt lat="52.19482" lon="6.5516">
        <time>2017-09-22T00:18:54Z</time>
      </trkpt>
      <trkpt lat="52.19459" lon="6.5521">
        <time>2017-09-22T00:18:56Z</time>
      </trkpt>
      <trkpt lat="52.19432" lon="6.55256">
        <time>2017-09-22T00:18:57Z</time>
      </trkpt>
      <trkpt lat="52.19432" lon="6.55256">
        <time>2017-09-22T00:18:57Z</time>
      </trkpt>
      <trkpt lat="52.19403" lon="6.55306">
        <time>2017-09-22T00:18:59Z</time>
      </trkpt>
      <trkpt lat="52.19369" lon="6.55406">
        <time>2017-09-22T00:19:02Z</time>
      </trkpt>
      <trkpt lat="52.19289" lon="6.55539">
        <time>2017-09-22T00:19:07Z</time>
      </trkpt>
      <trkpt lat="52.19282" lon="6.55547">
        <time>2017-09-22T00:19:07Z</time>
      </trkpt>
      <trkpt lat="52.19211" lon="6.55606">
        <time>2017-09-22T00:19:10Z</time>
      </trkpt>
      <trkpt lat="52.19176" lon="6.55657">
        <time>2017-09-22T00:19:12Z</time>
      </trkpt>
      <trkpt lat="52.19124" lon="6.55743">
        <time>2017-09-22T00:19:15Z</time>
      </trkpt>
      <trkpt lat="52.19062" lon="6.55864">
        <time>2017-09-22T00:19:19Z</time>
      </trkpt>
      <trkpt lat="52.19004" lon="6.56018">
        <time>2017-09-22T00:19:23Z</time>
      </trkpt>
      <trkpt lat="52.18832" lon="6.55945">
        <time>2017-09-22T00:19:31Z</time>
      </trkpt>
      <trkpt lat="52.18832" lon="6.55945">
        <time>2017-09-22T00:19:31Z</time>
      </trkpt>
      <trkpt lat="52.18681" lon="6.5588">
        <time>2017-09-22T00:19:37Z</time>
      </trkpt>
      <trkpt lat="52.1863" lon="6.56193">
        <time>2017-09-22T00:19:45Z</time>
      </trkpt>
      <trkpt lat="52.1863" lon="6.56193">
        <time>2017-09-22T00:19:45Z</time>
      </trkpt>
      <trkpt lat="52.18551" lon="6.56677">
        <time>2017-09-22T00:19:57Z</time>
      </trkpt>
      <trkpt lat="52.18649" lon="6.56728">
        <time>2017-09-22T00:20:02Z</time>
      </trkpt>
      <trkpt lat="52.18649" lon="6.56728">
        <time>2017-09-22T00:20:02Z</time>
      </trkpt>
      <trkpt lat="52.18753" lon="6.56781">
        <time>2017-09-22T00:20:06Z</time>
      </trkpt>
      <trkpt lat="52.18798" lon="6.56816">
        <time>2017-09-22T00:20:08Z</time>
      </trkpt>
      <trkpt lat="52.18812" lon="6.56823">
        <time>2017-09-22T00:20:09Z</time>
      </trkpt>
      <trkpt lat="52.18858" lon="6.56832">
        <time>2017-09-22T00:20:11Z</time>
      </trkpt>
      <trkpt lat="52.18869" lon="6.56845">
        <time>2017-09-22T00:20:11Z</time>
      </trkpt>
      <trkpt lat="52.18879" lon="6.56876">
        <time>2017-09-22T00:20:12Z</time>
      </trkpt>
      <trkpt lat="52.18911" lon="6.56925">
        <time>2017-09-22T00:20:14Z</time>
      </trkpt>
      <trkpt lat="52.18966" lon="6.56822">
        <time>2017-09-22T00:20:17Z</time>
      </trkpt>
      <trkpt lat="52.18966" lon="6.56822">
        <time>2017-09-22T00:20:17Z</time>
      </trkpt>
      <trkpt lat="52.1904" lon="6.56695">
        <time>2017-09-22T00:20:21Z</time>
      </trkpt>
      <trkpt lat="52.1913" lon="6.5656">
        <time>2017-09-22T00:20:26Z</time>
      </trkpt>
      <trkpt lat="52.19189" lon="6.56478">
        <time>2017-09-22T00:20:30Z</time>
      </trkpt>
      <trkpt lat="52.19294" lon="6.56344">
        <time>2017-09-22T00:20:35Z</time>
      </trkpt>
      <trkpt lat="52.19374" lon="6.56233">
        <time>2017-09-22T00:20:39Z</time>
      </trkpt>
      <trkpt lat="52.19443" lon="6.56155">
        <time>2017-09-22T00:20:43Z</time>
      </trkpt>
      <trkpt lat="52.19462" lon="6.56138">
        <time>2017-09-22T00:20:43Z</time>
      </trkpt>
      <trkpt lat="52.19511" lon="6.56103">
        <time>2017-09-22T00:20:46Z</time>
      </trkpt>
      <trkpt lat="52.19544" lon="6.56086">
        <time>2017-09-22T00:20:47Z</time>
      </trkpt>
      <trkpt lat="52.19581" lon="6.56072">
        <time>2017-09-22T00:20:49Z</time>
      </trkpt>
      <trkpt lat="52.19639" lon="6.5606">
        <time>2017-09-22T00:20:51Z</time>
      </trkpt>
      <trkpt lat="52.19669" lon="6.5606">
        <time>2017-09-22T00:20:52Z</time>
      </trkpt>
      <trkpt lat="52.19739" lon="6.56066">
        <time>2017-09-22T00:20:55Z</time>
      </trkpt>
      <trkpt lat="52.19753" lon="6.56069">
        <time>2017-09-22T00:20:56Z</time>
      </trkpt>
      <trkpt lat="52.19754" lon="6.5611">
        <time>2017-09-22T00:20:57Z</time>
      </trkpt>
      <trkpt lat="52.19751" lon="6.56156">
        <time>2017-09-22T00:20:58Z</time>
      </trkpt>
      <trkpt lat="52.19745" lon="6.56185">
        <time>2017-09-22T00:20:59Z</time>
      </trkpt>
      <trkpt lat="52.19737" lon="6.56208">
        <time>2017-09-22T00:20:59Z</time>
      </trkpt>
      <trkpt lat="52.19724" lon="6.56235">
        <time>2017-09-22T00:21:00Z</time>
      </trkpt>
      <trkpt lat="52.197" lon="6.56276">
        <time>2017-09-22T00:21:01Z</time>
      </trkpt>
      <trkpt lat="52.19691" lon="6.56299">
        <time>2017-09-22T00:21:02Z</time>
      </trkpt>
      <trkpt lat="52.19689" lon="6.56304">
        <time>2017-09-22T00:21:02Z</time>
      </trkpt>
      <trkpt lat="52.19689" lon="6.56304">
        <time>2017-09-22T00:21:02Z</time>
      </trkpt>
      <trkpt lat="52.1968" lon="6.56357">
        <time>2017-09-22T00:21:04Z</time>
      </trkpt>
      <trkpt lat="52.19676" lon="6.56537">
        <time>2017-09-22T00:21:08Z</time>
      </trkpt>
      <trkpt lat="52.19665" lon="6.56773">
        <time>2017-09-22T00:21:14Z</time>
      </trkpt>
      <trkpt lat="52.19653" lon="6.56867">
        <time>2017-09-22T00:21:16Z</time>
      </trkpt>
      <trkpt lat="52.19654" lon="6.56925">
        <time>2017-09-22T00:21:18Z</time>
      </trkpt>
      <trkpt lat="52.19659" lon="6.56985">
        <time>2017-09-22T00:21:19Z</time>
      </trkpt>
      <trkpt lat="52.1966" lon="6.57041">
        <time>2017-09-22T00:21:21Z</time>
      </trkpt>
      <trkpt lat="52.19649" lon="6.57216">
        <time>2017-09-22T00:21:25Z</time>
      </trkpt>
      <trkpt lat="52.19639" lon="6.57288">
        <time>2017-09-22T00:21:27Z</time>
      </trkpt>
      <trkpt lat="52.1963" lon="6.57312">
        <time>2017-09-22T00:21:28Z</time>
      </trkpt>
      <trkpt lat="52.19577" lon="6.57414">
        <time>2017-09-22T00:21:31Z</time>
      </trkpt>
      <trkpt lat="52.19572" lon="6.57444">
        <time>2017-09-22T00:21:32Z</time>
      </trkpt>
      <trkpt lat="52.19573" lon="6.57464">
        <time>2017-09-22T00:21:32Z</time>
      </trkpt>
      <trkpt lat="52.19583" lon="6.57537">
        <time>2017-09-22T00:21:34Z</time>
      </trkpt>
      <trkpt lat="52.19587" lon="6.57575">
        <time>2017-09-22T00:21:35Z</time>
      </trkpt>
      <trkpt lat="52.1958" lon="6.57666">
        <time>2017-09-22T00:21:37Z</time>
      </trkpt>
      <trkpt lat="52.1958" lon="6.57699">
        <time>2017-09-22T00:21:38Z</time>
      </trkpt>
      <trkpt lat="52.19586" lon="6.57742">
        <time>2017-09-22T00:21:39Z</time>
      </trkpt>
      <trkpt lat="52.19653" lon="6.58134">
        <time>2017-09-22T00:21:49Z</time>
      </trkpt>
      <trkpt lat="52.19656" lon="6.58168">
        <time>2017-09-22T00:21:50Z</time>
      </trkpt>
      <trkpt lat="52.19651" lon="6.58198">
        <time>2017-09-22T00:21:51Z</time>
      </trkpt>
      <trkpt lat="52.1964" lon="6.58233">
        <time>2017-09-22T00:21:52Z</time>
      </trkpt>
      <trkpt lat="52.1957" lon="6.58338">
        <time>2017-09-22T00:21:56Z</time>
      </trkpt>
      <trkpt lat="52.19562" lon="6.5836">
        <time>2017-09-22T00:21:56Z</time>
      </trkpt>
      <trkpt lat="52.19561" lon="6.58382">
        <time>2017-09-22T00:21:57Z</time>
      </trkpt>
      <trkpt lat="52.19563" lon="6.58406">
        <time>2017-09-22T00:21:57Z</time>
      </trkpt>
      <trkpt lat="52.1957" lon="6.58427">
        <time>2017-09-22T00:21:58Z</time>
      </trkpt>
      <trkpt lat="52.19585" lon="6.58459">
        <time>2017-09-22T00:21:59Z</time>
      </trkpt>
      <trkpt lat="52.19585" lon="6.58459">
        <time>2017-09-22T00:21:59Z</time>
      </trkpt>
      <trkpt lat="52.19639" lon="6.58575">
        <time>2017-09-22T00:22:03Z</time>
      </trkpt>
      <trkpt lat="52.19645" lon="6.58595">
        <time>2017-09-22T00:22:03Z</time>
      </trkpt>
      <trkpt lat="52.19648" lon="6.58614">
        <time>2017-09-22T00:22:04Z</time>
      </trkpt>
      <trkpt lat="52.19649" lon="6.5865">
        <time>2017-09-22T00:22:05Z</time>
      </trkpt>
      <trkpt lat="52.19642" lon="6.58684">
        <time>2017-09-22T00:22:06Z</time>
      </trkpt>
      <trkpt lat="52.19632" lon="6.58709">
        <time>2017-09-22T00:22:06Z</time>
      </trkpt>
      <trkpt lat="52.19622" lon="6.58724">
        <time>2017-09-22T00:22:07Z</time>
      </trkpt>
      <trkpt lat="52.19605" lon="6.58742">
        <time>2017-09-22T00:22:08Z</time>
      </trkpt>
      <trkpt lat="52.19555" lon="6.58769">
        <time>2017-09-22T00:22:10Z</time>
      </trkpt>
      <trkpt lat="52.19464" lon="6.58816">
        <time>2017-09-22T00:22:14Z</time>
      </trkpt>
      <trkpt lat="52.19455" lon="6.58825">
        <time>2017-09-22T00:22:14Z</time>
      </trkpt>
      <trkpt lat="52.1945" lon="6.58834">
        <time>2017-09-22T00:22:14Z</time>
      </trkpt>
      <trkpt lat="52.19438" lon="6.58871">
        <time>2017-09-22T00:22:15Z</time>
      </trkpt>
      <trkpt lat="52.1944" lon="6.58896">
        <time>2017-09-22T00:22:16Z</time>
      </trkpt>
      <trkpt lat="52.19492" lon="6.59059">
        <time>2017-09-22T00:22:21Z</time>
      </trkpt>
      <trkpt lat="52.19498" lon="6.59067">
        <time>2017-09-22T00:22:21Z</time>
      </trkpt>
      <trkpt lat="52.19503" lon="6.59084">
        <time>2017-09-22T00:22:21Z</time>
      </trkpt>
      <trkpt lat="52.19508" lon="6.59102">
        <time>2017-09-22T00:22:22Z</time>
      </trkpt>
      <trkpt lat="52.19509" lon="6.59123">
        <time>2017-09-22T00:22:22Z</time>
      </trkpt>
      <trkpt lat="52.19508" lon="6.59164">
        <time>2017-09-22T00:22:23Z</time>
      </trkpt>
      <trkpt lat="52.19498" lon="6.59233">
        <time>2017-09-22T00:22:25Z</time>
      </trkpt>
      <trkpt lat="52.19479" lon="6.59332">
        <time>2017-09-22T00:22:28Z</time>
      </trkpt>
      <trkpt lat="52.19476" lon="6.5938">
        <time>2017-09-22T00:22:29Z</time>
      </trkpt>
      <trkpt lat="52.19476" lon="6.59429">
        <time>2017-09-22T00:22:30Z</time>
      </trkpt>
      <trkpt lat="52.1947" lon="6.59478">
        <time>2017-09-22T00:22:31Z</time>
      </trkpt>
      <trkpt lat="52.19415" lon="6.59696">
        <time>2017-09-22T00:22:37Z</time>
      </trkpt>
      <trkpt lat="52.19394" lon="6.59767">
        <time>2017-09-22T00:22:39Z</time>
      </trkpt>
      <trkpt lat="52.19386" lon="6.59814">
        <time>2017-09-22T00:22:40Z</time>
      </trkpt>
      <trkpt lat="52.19384" lon="6.59847">
        <time>2017-09-22T00:22:41Z</time>
      </trkpt>
      <trkpt lat="52.19389" lon="6.599">
        <time>2017-09-22T00:22:43Z</time>
      </trkpt>
      <trkpt lat="52.19403" lon="6.59958">
        <time>2017-09-22T00:22:44Z</time>
      </trkpt>
      <trkpt lat="52.19428" lon="6.60011">
        <time>2017-09-22T00:22:46Z</time>
      </trkpt>
      <trkpt lat="52.19557" lon="6.60233">
        <time>2017-09-22T00:22:53Z</time>
      </trkpt>
      <trkpt lat="52.19572" lon="6.60258">
        <time>2017-09-22T00:22:54Z</time>
      </trkpt>
      <trkpt lat="52.19591" lon="6.603">
        <time>2017-09-22T00:22:56Z</time>
      </trkpt>
      <trkpt lat="52.19606" lon="6.60349">
        <time>2017-09-22T00:22:57Z</time>
      </trkpt>
      <trkpt lat="52.19608" lon="6.60382">
        <time>2017-09-22T00:22:58Z</time>
      </trkpt>
      <trkpt lat="52.19602" lon="6.60414">
        <time>2017-09-22T00:22:59Z</time>
      </trkpt>
      <trkpt lat="52.19597" lon="6.60425">
        <time>2017-09-22T00:22:59Z</time>
      </trkpt>
      <trkpt lat="52.19468" lon="6.60633">
        <time>2017-09-22T00:23:06Z</time>
      </trkpt>
      <trkpt lat="52.19292" lon="6.60982">
        <time>2017-09-22T00:23:17Z</time>
      </trkpt>
      <trkpt lat="52.19199" lon="6.61206">
        <time>2017-09-22T00:23:24Z</time>
      </trkpt>
      <trkpt lat="52.19118" lon="6.61383">
        <time>2017-09-22T00:23:30Z</time>
      </trkpt>
      <trkpt lat="52.18871" lon="6.61927">
        <time>2017-09-22T00:23:46Z</time>
      </trkpt>
      <trkpt lat="52.18758" lon="6.62198">
        <time>2017-09-22T00:23:55Z</time>
      </trkpt>
      <trkpt lat="52.1859" lon="6.62056">
        <time>2017-09-22T00:24:02Z</time>
      </trkpt>
      <trkpt lat="52.1859" lon="6.62056">
        <time>2017-09-22T00:24:02Z</time>
      </trkpt>
      <trkpt lat="52.18422" lon="6.61914">
        <time>2017-09-22T00:24:10Z</time>
      </trkpt>
      <trkpt lat="52.18216" lon="6.61749">
        <time>2017-09-22T00:24:19Z</time>
      </trkpt>
      <trkpt lat="52.18152" lon="6.61686">
        <time>2017-09-22T00:24:22Z</time>
      </trkpt>
      <trkpt lat="52.17635" lon="6.61043">
        <time>2017-09-22T00:24:49Z</time>
      </trkpt>
      <trkpt lat="52.17578" lon="6.60989">
        <time>2017-09-22T00:24:51Z</time>
      </trkpt>
      <trkpt lat="52.1753" lon="6.60949">
        <time>2017-09-22T00:24:53Z</time>
      </trkpt>
      <trkpt lat="52.17483" lon="6.60913">
        <time>2017-09-22T00:24:55Z</time>
      </trkpt>
      <trkpt lat="52.1742" lon="6.60875">
        <time>2017-09-22T00:24:58Z</time>
      </trkpt>
      <trkpt lat="52.17318" lon="6.60825">
        <time>2017-09-22T00:25:03Z</time>
      </trkpt>
      <trkpt lat="52.17314" lon="6.60822">
        <time>2017-09-22T00:25:03Z</time>
      </trkpt>
      <trkpt lat="52.17287" lon="6.60804">
        <time>2017-09-22T00:25:04Z</time>
      </trkpt>
      <trkpt lat="52.17266" lon="6.60795">
        <time>2017-09-22T00:25:05Z</time>
      </trkpt>
      <trkpt lat="52.17256" lon="6.60792">
        <time>2017-09-22T00:25:05Z</time>
      </trkpt>
      <trkpt lat="52.17255" lon="6.60802">
        <time>2017-09-22T00:25:05Z</time>
      </trkpt>
      <trkpt lat="52.17243" lon="6.60867">
        <time>2017-09-22T00:25:07Z</time>
      </trkpt>
      <trkpt lat="52.17235" lon="6.60918">
        <time>2017-09-22T00:25:08Z</time>
      </trkpt>
      <trkpt lat="52.1723" lon="6.60938">
        <time>2017-09-22T00:25:09Z</time>
      </trkpt>
      <trkpt lat="52.1723" lon="6.60938">
        <time>2017-09-22T00:25:09Z</time>
      </trkpt>
      <trkpt lat="52.17228" lon="6.60947">
        <time>2017-09-22T00:25:09Z</time>
      </trkpt>
      <trkpt lat="52.17216" lon="6.60975">
        <time>2017-09-22T00:25:10Z</time>
      </trkpt>
      <trkpt lat="52.17206" lon="6.60991">
        <time>2017-09-22T00:25:11Z</time>
      </trkpt>
      <trkpt lat="52.17195" lon="6.61002">
        <time>2017-09-22T00:25:11Z</time>
      </trkpt>
      <trkpt lat="52.17125" lon="6.6105">
        <time>2017-09-22T00:25:14Z</time>
      </trkpt>
      <trkpt lat="52.17017" lon="6.6112">
        <time>2017-09-22T00:25:19Z</time>
      </trkpt>
      <trkpt lat="52.16991" lon="6.6114">
        <time>2017-09-22T00:25:20Z</time>
      </trkpt>
      <trkpt lat="52.16951" lon="6.61178">
        <time>2017-09-22T00:25:22Z</time>
      </trkpt>
      <trkpt lat="52.16886" lon="6.61242">
        <time>2017-09-22T00:25:25Z</time>
      </trkpt>
      <trkpt lat="52.1687" lon="6.61255">
        <time>2017-09-22T00:25:26Z</time>
      </trkpt>
      <trkpt lat="52.16826" lon="6.61278">
        <time>2017-09-22T00:25:28Z</time>
      </trkpt>
      <trkpt lat="52.16734" lon="6.61316">
        <time>2017-09-22T00:25:31Z</time>
      </trkpt>
      <trkpt lat="52.16443" lon="6.61537">
        <time>2017-09-22T00:25:44Z</time>
      </trkpt>
      <trkpt lat="52.16298" lon="6.61636">
        <time>2017-09-22T00:25:51Z</time>
      </trkpt>
      <trkpt lat="52.16154" lon="6.61735">
        <time>2017-09-22T00:25:57Z</time>
      </trkpt>
      <trkpt lat="52.16065" lon="6.6179">
        <time>2017-09-22T00:26:01Z</time>
      </trkpt>
      <trkpt lat="52.1607" lon="6.61795">
        <time>2017-09-22T00:26:01Z</time>
      </trkpt>
      <trkpt lat="52.1608" lon="6.61816">
        <time>2017-09-22T00:26:02Z</time>
      </trkpt>
      <trkpt lat="52.16089" lon="6.61827">
        <time>2017-09-22T00:26:02Z</time>
      </trkpt>
      <trkpt lat="52.16197" lon="6.61923">
        <time>2017-09-22T00:26:07Z</time>
      </trkpt>
      <trkpt lat="52.16367" lon="6.62074">
        <time>2017-09-22T00:26:15Z</time>
      </trkpt>
      <trkpt lat="52.16376" lon="6.62083">
        <time>2017-09-22T00:26:16Z</time>
      </trkpt>
      <trkpt lat="52.16376" lon="6.62083">
        <time>2017-09-22T00:26:16Z</time>
      </trkpt>
      <trkpt lat="52.1656" lon="6.62253">
        <time>2017-09-22T00:26:24Z</time>
      </trkpt>
      <trkpt lat="52.16729" lon="6.62412">
        <time>2017-09-22T00:26:32Z</time>
      </trkpt>
      <trkpt lat="52.16747" lon="6.62434">
        <time>2017-09-22T00:26:33Z</time>
      </trkpt>
      <trkpt lat="52.16765" lon="6.6247">
        <time>2017-09-22T00:26:34Z</time>
      </trkpt>
      <trkpt lat="52.16827" lon="6.62659">
        <time>2017-09-22T00:26:39Z</time>
      </trkpt>
      <trkpt lat="52.1686" lon="6.62751">
        <time>2017-09-22T00:26:42Z</time>
      </trkpt>
      <trkpt lat="52.16884" lon="6.62821">
        <time>2017-09-22T00:26:44Z</time>
      </trkpt>
      <trkpt lat="52.16898" lon="6.62872">
        <time>2017-09-22T00:26:45Z</time>
      </trkpt>
      <trkpt lat="52.1693" lon="6.62981">
        <time>2017-09-22T00:26:48Z</time>
      </trkpt>
      <trkpt lat="52.17027" lon="6.63284">
        <time>2017-09-22T00:26:57Z</time>
      </trkpt>
      <trkpt lat="52.17056" lon="6.63352">
        <time>2017-09-22T00:26:59Z</time>
      </trkpt>
      <trkpt lat="52.17094" lon="6.63423">
        <time>2017-09-22T00:27:01Z</time>
      </trkpt>
      <trkpt lat="52.17115" lon="6.63457">
        <time>2017-09-22T00:27:03Z</time>
      </trkpt>
      <trkpt lat="52.17139" lon="6.63488">
        <time>2017-09-22T00:27:04Z</time>
      </trkpt>
      <trkpt lat="52.17233" lon="6.63587">
        <time>2017-09-22T00:27:08Z</time>
      </trkpt>
      <trkpt lat="52.17361" lon="6.63719">
        <time>2017-09-22T00:27:14Z</time>
      </trkpt>
      <trkpt lat="52.17374" lon="6.63736">
        <time>2017-09-22T00:27:15Z</time>
      </trkpt>
      <trkpt lat="52.17387" lon="6.63766">
        <time>2017-09-22T00:27:16Z</time>
      </trkpt>
      <trkpt lat="52.17392" lon="6.63788">
        <time>2017-09-22T00:27:17Z</time>
      </trkpt>
      <trkpt lat="52.17392" lon="6.63826">
        <time>2017-09-22T00:27:18Z</time>
      </trkpt>
      <trkpt lat="52.17385" lon="6.63858">
        <time>2017-09-22T00:27:18Z</time>
      </trkpt>
      <trkpt lat="52.17366" lon="6.63905">
        <time>2017-09-22T00:27:20Z</time>
      </trkpt>
      <trkpt lat="52.17329" lon="6.63985">
        <time>2017-09-22T00:27:22Z</time>
      </trkpt>
      <trkpt lat="52.17305" lon="6.6403">
        <time>2017-09-22T00:27:24Z</time>
      </trkpt>
      <trkpt lat="52.17277" lon="6.64081">
        <time>2017-09-22T00:27:25Z</time>
      </trkpt>
      <trkpt lat="52.17176" lon="6.64311">
        <time>2017-09-22T00:27:32Z</time>
      </trkpt>
      <trkpt lat="52.1726" lon="6.64381">
        <time>2017-09-22T00:27:36Z</time>
      </trkpt>
      <trkpt lat="52.1726" lon="6.64381">
        <time>2017-09-22T00:27:36Z</time>
      </trkpt>
      <trkpt lat="52.17442" lon="6.6453">
        <time>2017-09-22T00:27:45Z</time>
      </trkpt>
      <trkpt lat="52.17516" lon="6.64591">
        <time>2017-09-22T00:27:48Z</time>
      </trkpt>
      <trkpt lat="52.17622" lon="6.64683">
        <time>2017-09-22T00:27:53Z</time>
      </trkpt>
      <trkpt lat="52.17683" lon="6.64736">
        <time>2017-09-22T00:27:56Z</time>
      </trkpt>
      <trkpt lat="52.17663" lon="6.64823">
        <time>2017-09-22T00:27:58Z</time>
      </trkpt>
      <trkpt lat="52.17639" lon="6.64988">
        <time>2017-09-22T00:28:02Z</time>
      </trkpt>
      <trkpt lat="52.17639" lon="6.64988">
        <time>2017-09-22T00:28:02Z</time>
      </trkpt>
      <trkpt lat="52.17584" lon="6.65357">
        <time>2017-09-22T00:28:12Z</time>
      </trkpt>
      <trkpt lat="52.17568" lon="6.65476">
        <time>2017-09-22T00:28:15Z</time>
      </trkpt>
      <trkpt lat="52.17665" lon="6.65524">
        <time>2017-09-22T00:28:19Z</time>
      </trkpt>
      <trkpt lat="52.17665" lon="6.65524">
        <time>2017-09-22T00:28:19Z</time>
      </trkpt>
      <trkpt lat="52.17691" lon="6.65537">
        <time>2017-09-22T00:28:20Z</time>
      </trkpt>
      <trkpt lat="52.17822" lon="6.65724">
        <time>2017-09-22T00:28:27Z</time>
      </trkpt>
      <trkpt lat="52.17846" lon="6.65795">
        <time>2017-09-22T00:28:29Z</time>
      </trkpt>
      <trkpt lat="52.17853" lon="6.65829">
        <time>2017-09-22T00:28:30Z</time>
      </trkpt>
      <trkpt lat="52.17863" lon="6.65868">
        <time>2017-09-22T00:28:31Z</time>
      </trkpt>
      <trkpt lat="52.17874" lon="6.65903">
        <time>2017-09-22T00:28:32Z</time>
      </trkpt>
      <trkpt lat="52.17947" lon="6.6604">
        <time>2017-09-22T00:28:36Z</time>
      </trkpt>
      <trkpt lat="52.17998" lon="6.66132">
        <time>2017-09-22T00:28:39Z</time>
      </trkpt>
      <trkpt lat="52.1809" lon="6.66282">
        <time>2017-09-22T00:28:45Z</time>
      </trkpt>
      <trkpt lat="52.18122" lon="6.66335">
        <time>2017-09-22T00:28:46Z</time>
      </trkpt>
      <trkpt lat="52.18148" lon="6.66396">
        <time>2017-09-22T00:28:48Z</time>
      </trkpt>
      <trkpt lat="52.18208" lon="6.66544">
        <time>2017-09-22T00:28:53Z</time>
      </trkpt>
      <trkpt lat="52.18246" lon="6.6662">
        <time>2017-09-22T00:28:55Z</time>
      </trkpt>
      <trkpt lat="52.18246" lon="6.6662">
        <time>2017-09-22T00:28:55Z</time>
      </trkpt>
      <trkpt lat="52.1852" lon="6.67144">
        <time>2017-09-22T00:29:12Z</time>
      </trkpt>
      <trkpt lat="52.1852" lon="6.67144">
        <time>2017-09-22T00:29:12Z</time>
      </trkpt>
      <trkpt lat="52.18548" lon="6.67199">
        <time>2017-09-22T00:29:14Z</time>
      </trkpt>
      <trkpt lat="52.18553" lon="6.67208">
        <time>2017-09-22T00:29:14Z</time>
      </trkpt>
      <trkpt lat="52.18559" lon="6.67211">
        <time>2017-09-22T00:29:15Z</time>
      </trkpt>
      <trkpt lat="52.18621" lon="6.67245">
        <time>2017-09-22T00:29:17Z</time>
      </trkpt>
      <trkpt lat="52.18648" lon="6.6726">
        <time>2017-09-22T00:29:18Z</time>
      </trkpt>
      <trkpt lat="52.18648" lon="6.6726">
        <time>2017-09-22T00:29:18Z</time>
      </trkpt>
      <trkpt lat="52.18676" lon="6.67275">
        <time>2017-09-22T00:29:20Z</time>
      </trkpt>
      <trkpt lat="52.18703" lon="6.67155">
        <time>2017-09-22T00:29:23Z</time>
      </trkpt>
      <trkpt lat="52.18767" lon="6.66865">
        <time>2017-09-22T00:29:30Z</time>
      </trkpt>
      <trkpt lat="52.18784" lon="6.66827">
        <time>2017-09-22T00:29:32Z</time>
      </trkpt>
      <trkpt lat="52.1888" lon="6.66731">
        <time>2017-09-22T00:29:36Z</time>
      </trkpt>
      <trkpt lat="52.18931" lon="6.66681">
        <time>2017-09-22T00:29:38Z</time>
      </trkpt>
      <trkpt lat="52.18951" lon="6.66654">
        <time>2017-09-22T00:29:40Z</time>
      </trkpt>
      <trkpt lat="52.19004" lon="6.66568">
        <time>2017-09-22T00:29:43Z</time>
      </trkpt>
      <trkpt lat="52.19015" lon="6.66555">
        <time>2017-09-22T00:29:43Z</time>
      </trkpt>
      <trkpt lat="52.19034" lon="6.66541">
        <time>2017-09-22T00:29:44Z</time>
      </trkpt>
      <trkpt lat="52.19106" lon="6.66501">
        <time>2017-09-22T00:29:47Z</time>
      </trkpt>
      <trkpt lat="52.19166" lon="6.66467">
        <time>2017-09-22T00:29:50Z</time>
      </trkpt>
      <trkpt lat="52.19189" lon="6.66456">
        <time>2017-09-22T00:29:51Z</time>
      </trkpt>
      <trkpt lat="52.192" lon="6.66454">
        <time>2017-09-22T00:29:51Z</time>
      </trkpt>
      <trkpt lat="52.19207" lon="6.66455">
        <time>2017-09-22T00:29:51Z</time>
      </trkpt>
      <trkpt lat="52.19218" lon="6.66463">
        <time>2017-09-22T00:29:52Z</time>
      </trkpt>
      <trkpt lat="52.19225" lon="6.6647">
        <time>2017-09-22T00:29:52Z</time>
      </trkpt>
      <trkpt lat="52.19234" lon="6.66483">
        <time>2017-09-22T00:29:53Z</time>
      </trkpt>
      <trkpt lat="52.19385" lon="6.66813">
        <time>2017-09-22T00:30:03Z</time>
      </trkpt>
      <trkpt lat="52.19393" lon="6.66821">
        <time>2017-09-22T00:30:03Z</time>
      </trkpt>
      <trkpt lat="52.19406" lon="6.66832">
        <time>2017-09-22T00:30:04Z</time>
      </trkpt>
      <trkpt lat="52.1942" lon="6.66849">
        <time>2017-09-22T00:30:05Z</time>
      </trkpt>
      <trkpt lat="52.19454" lon="6.6693">
        <time>2017-09-22T00:30:07Z</time>
      </trkpt>
      <trkpt lat="52.19463" lon="6.66946">
        <time>2017-09-22T00:30:08Z</time>
      </trkpt>
      <trkpt lat="52.19472" lon="6.66949">
        <time>2017-09-22T00:30:08Z</time>
      </trkpt>
      <trkpt lat="52.1948" lon="6.66943">
        <time>2017-09-22T00:30:08Z</time>
      </trkpt>
      <trkpt lat="52.19672" lon="6.66735">
        <time>2017-09-22T00:30:18Z</time>
      </trkpt>
      <trkpt lat="52.19683" lon="6.66723">
        <time>2017-09-22T00:30:18Z</time>
      </trkpt>
      <trkpt lat="52.19683" lon="6.66723">
        <time>2017-09-22T00:30:18Z</time>
      </trkpt>
      <trkpt lat="52.19698" lon="6.66708">
        <time>2017-09-22T00:30:19Z</time>
      </trkpt>
      <trkpt lat="52.19812" lon="6.66589">
        <time>2017-09-22T00:30:24Z</time>
      </trkpt>
      <trkpt lat="52.19834" lon="6.66613">
        <time>2017-09-22T00:30:25Z</time>
      </trkpt>
      <trkpt lat="52.19856" lon="6.66635">
        <time>2017-09-22T00:30:26Z</time>
      </trkpt>
      <trkpt lat="52.19869" lon="6.66655">
        <time>2017-09-22T00:30:27Z</time>
      </trkpt>
      <trkpt lat="52.19896" lon="6.66717">
        <time>2017-09-22T00:30:29Z</time>
      </trkpt>
      <trkpt lat="52.19912" lon="6.66764">
        <time>2017-09-22T00:30:30Z</time>
      </trkpt>
      <trkpt lat="52.19931" lon="6.66836">
        <time>2017-09-22T00:30:32Z</time>
      </trkpt>
      <trkpt lat="52.19931" lon="6.66836">
        <time>2017-09-22T00:30:32Z</time>
      </trkpt>
      <trkpt lat="52.19938" lon="6.66862">
        <time>2017-09-22T00:30:33Z</time>
      </trkpt>
      <trkpt lat="52.19963" lon="6.66922">
        <time>2017-09-22T00:30:35Z</time>
      </trkpt>
      <trkpt lat="52.19973" lon="6.66946">
        <time>2017-09-22T00:30:36Z</time>
      </trkpt>
      <trkpt lat="52.19982" lon="6.66965">
        <time>2017-09-22T00:30:36Z</time>
      </trkpt>
      <trkpt lat="52.19988" lon="6.66973">
        <time>2017-09-22T00:30:36Z</time>
      </trkpt>
      <trkpt lat="52.20243" lon="6.6722">
        <time>2017-09-22T00:30:48Z</time>
      </trkpt>
      <trkpt lat="52.20252" lon="6.67229">
        <time>2017-09-22T00:30:49Z</time>
      </trkpt>
      <trkpt lat="52.20249" lon="6.67234">
        <time>2017-09-22T00:30:49Z</time>
      </trkpt>
      <trkpt lat="52.20211" lon="6.67266">
        <time>2017-09-22T00:30:51Z</time>
      </trkpt>
      <trkpt lat="52.20037" lon="6.67402">
        <time>2017-09-22T00:30:59Z</time>
      </trkpt>
      <trkpt lat="52.19924" lon="6.67492">
        <time>2017-09-22T00:31:04Z</time>
      </trkpt>
      <trkpt lat="52.19924" lon="6.67492">
        <time>2017-09-22T00:31:04Z</time>
      </trkpt>
      <trkpt lat="52.19759" lon="6.67621">
        <time>2017-09-22T00:31:11Z</time>
      </trkpt>
      <trkpt lat="52.19742" lon="6.67641">
        <time>2017-09-22T00:31:12Z</time>
      </trkpt>
      <trkpt lat="52.19723" lon="6.67671">
        <time>2017-09-22T00:31:13Z</time>
      </trkpt>
      <trkpt lat="52.1972" lon="6.67685">
        <time>2017-09-22T00:31:13Z</time>
      </trkpt>
      <trkpt lat="52.19709" lon="6.67783">
        <time>2017-09-22T00:31:16Z</time>
      </trkpt>
      <trkpt lat="52.19705" lon="6.67801">
        <time>2017-09-22T00:31:16Z</time>
      </trkpt>
      <trkpt lat="52.19699" lon="6.67818">
        <time>2017-09-22T00:31:17Z</time>
      </trkpt>
      <trkpt lat="52.19668" lon="6.67882">
        <time>2017-09-22T00:31:19Z</time>
      </trkpt>
      <trkpt lat="52.19639" lon="6.67975">
        <time>2017-09-22T00:31:21Z</time>
      </trkpt>
      <trkpt lat="52.19621" lon="6.68031">
        <time>2017-09-22T00:31:23Z</time>
      </trkpt>
      <trkpt lat="52.19529" lon="6.68318">
        <time>2017-09-22T00:31:31Z</time>
      </trkpt>
      <trkpt lat="52.1951" lon="6.68354">
        <time>2017-09-22T00:31:32Z</time>
      </trkpt>
      <trkpt lat="52.19484" lon="6.6839">
        <time>2017-09-22T00:31:34Z</time>
      </trkpt>
      <trkpt lat="52.19465" lon="6.6841">
        <time>2017-09-22T00:31:35Z</time>
      </trkpt>
      <trkpt lat="52.19443" lon="6.68426">
        <time>2017-09-22T00:31:35Z</time>
      </trkpt>
      <trkpt lat="52.19395" lon="6.68471">
        <time>2017-09-22T00:31:38Z</time>
      </trkpt>
      <trkpt lat="52.19391" lon="6.68477">
        <time>2017-09-22T00:31:38Z</time>
      </trkpt>
      <trkpt lat="52.19381" lon="6.68516">
        <time>2017-09-22T00:31:39Z</time>
      </trkpt>
      <trkpt lat="52.19364" lon="6.68588">
        <time>2017-09-22T00:31:41Z</time>
      </trkpt>
      <trkpt lat="52.19255" lon="6.69004">
        <time>2017-09-22T00:31:52Z</time>
      </trkpt>
      <trkpt lat="52.19252" lon="6.69022">
        <time>2017-09-22T00:31:53Z</time>
      </trkpt>
      <trkpt lat="52.19254" lon="6.69052">
        <time>2017-09-22T00:31:53Z</time>
      </trkpt>
      <trkpt lat="52.19257" lon="6.69067">
        <time>2017-09-22T00:31:54Z</time>
      </trkpt>
      <trkpt lat="52.19273" lon="6.6911">
        <time>2017-09-22T00:31:55Z</time>
      </trkpt>
      <trkpt lat="52.19275" lon="6.69145">
        <time>2017-09-22T00:31:56Z</time>
      </trkpt>
      <trkpt lat="52.19265" lon="6.69574">
        <time>2017-09-22T00:32:07Z</time>
      </trkpt>
      <trkpt lat="52.19265" lon="6.69574">
        <time>2017-09-22T00:32:07Z</time>
      </trkpt>
      <trkpt lat="52.19259" lon="6.69949">
        <time>2017-09-22T00:32:16Z</time>
      </trkpt>
      <trkpt lat="52.19281" lon="6.69995">
        <time>2017-09-22T00:32:17Z</time>
      </trkpt>
      <trkpt lat="52.19362" lon="6.70125">
        <time>2017-09-22T00:32:22Z</time>
      </trkpt>
      <trkpt lat="52.19376" lon="6.70139">
        <time>2017-09-22T00:32:23Z</time>
      </trkpt>
      <trkpt lat="52.19397" lon="6.70153">
        <time>2017-09-22T00:32:23Z</time>
      </trkpt>
      <trkpt lat="52.19408" lon="6.70159">
        <time>2017-09-22T00:32:24Z</time>
      </trkpt>
      <trkpt lat="52.19424" lon="6.70162">
        <time>2017-09-22T00:32:25Z</time>
      </trkpt>
      <trkpt lat="52.19446" lon="6.70169">
        <time>2017-09-22T00:32:25Z</time>
      </trkpt>
      <trkpt lat="52.1949" lon="6.70182">
        <time>2017-09-22T00:32:27Z</time>
      </trkpt>
      <trkpt lat="52.19565" lon="6.70176">
        <time>2017-09-22T00:32:30Z</time>
      </trkpt>
      <trkpt lat="52.19601" lon="6.70176">
        <time>2017-09-22T00:32:32Z</time>
      </trkpt>
      <trkpt lat="52.19617" lon="6.70181">
        <time>2017-09-22T00:32:32Z</time>
      </trkpt>
      <trkpt lat="52.19754" lon="6.70246">
        <time>2017-09-22T00:32:38Z</time>
      </trkpt>
      <trkpt lat="52.19795" lon="6.70253">
        <time>2017-09-22T00:32:40Z</time>
      </trkpt>
      <trkpt lat="52.19828" lon="6.70254">
        <time>2017-09-22T00:32:41Z</time>
      </trkpt>
      <trkpt lat="52.19914" lon="6.70251">
        <time>2017-09-22T00:32:45Z</time>
      </trkpt>
      <trkpt lat="52.19996" lon="6.70177">
        <time>2017-09-22T00:32:49Z</time>
      </trkpt>
      <trkpt lat="52.20027" lon="6.7015">
        <time>2017-09-22T00:32:50Z</time>
      </trkpt>
      <trkpt lat="52.20027" lon="6.7015">
        <time>2017-09-22T00:32:50Z</time>
      </trkpt>
      <trkpt lat="52.20361" lon="6.69856">
        <time>2017-09-22T00:33:05Z</time>
      </trkpt>
      <trkpt lat="52.20726" lon="6.69531">
        <time>2017-09-22T00:33:22Z</time>
      </trkpt>
      <trkpt lat="52.20743" lon="6.69521">
        <time>2017-09-22T00:33:23Z</time>
      </trkpt>
      <trkpt lat="52.20747" lon="6.69514">
        <time>2017-09-22T00:33:23Z</time>
      </trkpt>
      <trkpt lat="52.20717" lon="6.69318">
        <time>2017-09-22T00:33:28Z</time>
      </trkpt>
      <trkpt lat="52.20717" lon="6.69318">
        <time>2017-09-22T00:33:28Z</time>
      </trkpt>
      <trkpt lat="52.20654" lon="6.6889">
        <time>2017-09-22T00:33:39Z</time>
      </trkpt>
      <trkpt lat="52.20654" lon="6.68876">
        <time>2017-09-22T00:33:39Z</time>
      </trkpt>
      <trkpt lat="52.20662" lon="6.68815">
        <time>2017-09-22T00:33:41Z</time>
      </trkpt>
      <trkpt lat="52.20735" lon="6.68842">
        <time>2017-09-22T00:33:44Z</time>
      </trkpt>
      <trkpt lat="52.20735" lon="6.68842">
        <time>2017-09-22T00:33:44Z</time>
      </trkpt>
      <trkpt lat="52.21044" lon="6.6896">
        <time>2017-09-22T00:33:57Z</time>
      </trkpt>
      <trkpt lat="52.21061" lon="6.68965">
        <time>2017-09-22T00:33:58Z</time>
      </trkpt>
      <trkpt lat="52.21237" lon="6.6903">
        <time>2017-09-22T00:34:05Z</time>
      </trkpt>
      <trkpt lat="52.21551" lon="6.69149">
        <time>2017-09-22T00:34:18Z</time>
      </trkpt>
      <trkpt lat="52.21698" lon="6.69205">
        <time>2017-09-22T00:34:24Z</time>
      </trkpt>
      <trkpt lat="52.21708" lon="6.69183">
        <time>2017-09-22T00:34:25Z</time>
      </trkpt>
      <trkpt lat="52.21772" lon="6.69034">
        <time>2017-09-22T00:34:29Z</time>
      </trkpt>
      <trkpt lat="52.21772" lon="6.69034">
        <time>2017-09-22T00:34:29Z</time>
      </trkpt>
      <trkpt lat="52.21995" lon="6.6852">
        <time>2017-09-22T00:34:45Z</time>
      </trkpt>
      <trkpt lat="52.22022" lon="6.68481">
        <time>2017-09-22T00:34:46Z</time>
      </trkpt>
      <trkpt lat="52.2204" lon="6.68477">
        <time>2017-09-22T00:34:47Z</time>
      </trkpt>
      <trkpt lat="52.2212" lon="6.68493">
        <time>2017-09-22T00:34:50Z</time>
      </trkpt>
      <trkpt lat="52.22178" lon="6.68526">
        <time>2017-09-22T00:34:53Z</time>
      </trkpt>
      <trkpt lat="52.22359" lon="6.68588">
        <time>2017-09-22T00:35:00Z</time>
      </trkpt>
      <trkpt lat="52.22413" lon="6.68604">
        <time>2017-09-22T00:35:02Z</time>
      </trkpt>
      <trkpt lat="52.22498" lon="6.68636">
        <time>2017-09-22T00:35:06Z</time>
      </trkpt>
      <trkpt lat="52.22534" lon="6.6865">
        <time>2017-09-22T00:35:07Z</time>
      </trkpt>
      <trkpt lat="52.22575" lon="6.68657">
        <time>2017-09-22T00:35:09Z</time>
      </trkpt>
      <trkpt lat="52.22797" lon="6.68741">
        <time>2017-09-22T00:35:18Z</time>
      </trkpt>
      <trkpt lat="52.22802" lon="6.68741">
        <time>2017-09-22T00:35:19Z</time>
      </trkpt>
      <trkpt lat="52.22816" lon="6.68735">
        <time>2017-09-22T00:35:19Z</time>
      </trkpt>
      <trkpt lat="52.22835" lon="6.68774">
        <time>2017-09-22T00:35:20Z</time>
      </trkpt>
      <trkpt lat="52.22847" lon="6.68793">
        <time>2017-09-22T00:35:21Z</time>
      </trkpt>
      <trkpt lat="52.22847" lon="6.68793">
        <time>2017-09-22T00:35:21Z</time>
      </trkpt>
      <trkpt lat="52.22852" lon="6.68804">
        <time>2017-09-22T00:35:21Z</time>
      </trkpt>
      <trkpt lat="52.22887" lon="6.68852">
        <time>2017-09-22T00:35:23Z</time>
      </trkpt>
      <trkpt lat="52.22934" lon="6.68892">
        <time>2017-09-22T00:35:25Z</time>
      </trkpt>
      <trkpt lat="52.22943" lon="6.68895">
        <time>2017-09-22T00:35:26Z</time>
      </trkpt>
      <trkpt lat="52.2296" lon="6.68908">
        <time>2017-09-22T00:35:27Z</time>
      </trkpt>
      <trkpt lat="52.23002" lon="6.68925">
        <time>2017-09-22T00:35:28Z</time>
      </trkpt>
      <trkpt lat="52.2305" lon="6.68931">
        <time>2017-09-22T00:35:30Z</time>
      </trkpt>
      <trkpt lat="52.23123" lon="6.68934">
        <time>2017-09-22T00:35:33Z</time>
      </trkpt>
      <trkpt lat="52.23173" lon="6.68941">
        <time>2017-09-22T00:35:35Z</time>
      </trkpt>
      <trkpt lat="52.23225" lon="6.68952">
        <time>2017-09-22T00:35:37Z</time>
      </trkpt>
      <trkpt lat="52.23519" lon="6.69064">
        <time>2017-09-22T00:35:50Z</time>
      </trkpt>
      <trkpt lat="52.23616" lon="6.69094">
        <time>2017-09-22T00:35:54Z</time>
      </trkpt>
      <trkpt lat="52.23769" lon="6.69123">
        <time>2017-09-22T00:36:00Z</time>
      </trkpt>
      <trkpt lat="52.23825" lon="6.69127">
        <time>2017-09-22T00:36:02Z</time>
      </trkpt>
      <trkpt lat="52.23873" lon="6.69135">
        <time>2017-09-22T00:36:04Z</time>
      </trkpt>
      <trkpt lat="52.23897" lon="6.69149">
        <time>2017-09-22T00:36:05Z</time>
      </trkpt>
      <trkpt lat="52.24045" lon="6.69238">
        <time>2017-09-22T00:36:11Z</time>
      </trkpt>
      <trkpt lat="52.24097" lon="6.69269">
        <time>2017-09-22T00:36:14Z</time>
      </trkpt>
      <trkpt lat="52.24124" lon="6.69283">
        <time>2017-09-22T00:36:15Z</time>
      </trkpt>
      <trkpt lat="52.24352" lon="6.69425">
        <time>2017-09-22T00:36:25Z</time>
      </trkpt>
      <trkpt lat="52.24539" lon="6.69535">
        <time>2017-09-22T00:36:33Z</time>
      </trkpt>
      <trkpt lat="52.2458" lon="6.69475">
        <time>2017-09-22T00:36:35Z</time>
      </trkpt>
      <trkpt lat="52.2458" lon="6.69475">
        <time>2017-09-22T00:36:35Z</time>
      </trkpt>
      <trkpt lat="52.25016" lon="6.68854">
        <time>2017-09-22T00:36:58Z</time>
      </trkpt>
      <trkpt lat="52.25019" lon="6.68849">
        <time>2017-09-22T00:36:59Z</time>
      </trkpt>
      <trkpt lat="52.25018" lon="6.68845">
        <time>2017-09-22T00:36:59Z</time>
      </trkpt>
      <trkpt lat="52.24936" lon="6.68614">
        <time>2017-09-22T00:37:05Z</time>
      </trkpt>
      <trkpt lat="52.24814" lon="6.68354">
        <time>2017-09-22T00:37:13Z</time>
      </trkpt>
      <trkpt lat="52.24795" lon="6.68319">
        <time>2017-09-22T00:37:15Z</time>
      </trkpt>
      <trkpt lat="52.24775" lon="6.68284">
        <time>2017-09-22T00:37:16Z</time>
      </trkpt>
      <trkpt lat="52.24629" lon="6.68096">
        <time>2017-09-22T00:37:23Z</time>
      </trkpt>
      <trkpt lat="52.24614" lon="6.68082">
        <time>2017-09-22T00:37:24Z</time>
      </trkpt>
      <trkpt lat="52.24583" lon="6.68069">
        <time>2017-09-22T00:37:25Z</time>
      </trkpt>
      <trkpt lat="52.2449" lon="6.68035">
        <time>2017-09-22T00:37:29Z</time>
      </trkpt>
      <trkpt lat="52.24498" lon="6.68003">
        <time>2017-09-22T00:37:30Z</time>
      </trkpt>
      <trkpt lat="52.24514" lon="6.67936">
        <time>2017-09-22T00:37:32Z</time>
      </trkpt>
      <trkpt lat="52.24514" lon="6.67936">
        <time>2017-09-22T00:37:32Z</time>
      </trkpt>
      <trkpt lat="52.24541" lon="6.67822">
        <time>2017-09-22T00:37:35Z</time>
      </trkpt>
      <trkpt lat="52.24553" lon="6.67783">
        <time>2017-09-22T00:37:36Z</time>
      </trkpt>
      <trkpt lat="52.24561" lon="6.67763">
        <time>2017-09-22T00:37:37Z</time>
      </trkpt>
      <trkpt lat="52.24566" lon="6.67759">
        <time>2017-09-22T00:37:37Z</time>
      </trkpt>
      <trkpt lat="52.24617" lon="6.67706">
        <time>2017-09-22T00:37:39Z</time>
      </trkpt>
      <trkpt lat="52.24663" lon="6.67657">
        <time>2017-09-22T00:37:41Z</time>
      </trkpt>
      <trkpt lat="52.24733" lon="6.6781">
        <time>2017-09-22T00:37:46Z</time>
      </trkpt>
      <trkpt lat="52.24733" lon="6.6781">
        <time>2017-09-22T00:37:46Z</time>
      </trkpt>
      <trkpt lat="52.24825" lon="6.68009">
        <time>2017-09-22T00:37:52Z</time>
      </trkpt>
      <trkpt lat="52.2494" lon="6.68292">
        <time>2017-09-22T00:38:01Z</time>
      </trkpt>
      <trkpt lat="52.25055" lon="6.68239">
        <time>2017-09-22T00:38:06Z</time>
      </trkpt>
      <trkpt lat="52.25086" lon="6.68251">
        <time>2017-09-22T00:38:07Z</time>
      </trkpt>
      <trkpt lat="52.25096" lon="6.68248">
        <time>2017-09-22T00:38:07Z</time>
      </trkpt>
      <trkpt lat="52.25104" lon="6.68238">
        <time>2017-09-22T00:38:08Z</time>
      </trkpt>
      <trkpt lat="52.25165" lon="6.68161">
        <time>2017-09-22T00:38:11Z</time>
      </trkpt>
      <trkpt lat="52.25496" lon="6.67731">
        <time>2017-09-22T00:38:28Z</time>
      </trkpt>
      <trkpt lat="52.25615" lon="6.6758">
        <time>2017-09-22T00:38:34Z</time>
      </trkpt>
      <trkpt lat="52.25728" lon="6.67443">
        <time>2017-09-22T00:38:40Z</time>
      </trkpt>
      <trkpt lat="52.25765" lon="6.676">
        <time>2017-09-22T00:38:44Z</time>
      </trkpt>
      <trkpt lat="52.25802" lon="6.67756">
        <time>2017-09-22T00:38:48Z</time>
      </trkpt>
      <trkpt lat="52.2582" lon="6.67846">
        <time>2017-09-22T00:38:50Z</time>
      </trkpt>
      <trkpt lat="52.25825" lon="6.67865">
        <time>2017-09-22T00:38:51Z</time>
      </trkpt>
      <trkpt lat="52.25836" lon="6.67883">
        <time>2017-09-22T00:38:52Z</time>
      </trkpt>
      <trkpt lat="52.25847" lon="6.6791">
        <time>2017-09-22T00:38:52Z</time>
      </trkpt>
      <trkpt lat="52.25845" lon="6.6793">
        <time>2017-09-22T00:38:53Z</time>
      </trkpt>
      <trkpt lat="52.25848" lon="6.67959">
        <time>2017-09-22T00:38:54Z</time>
      </trkpt>
      <trkpt lat="52.25875" lon="6.68081">
        <time>2017-09-22T00:38:57Z</time>
      </trkpt>
      <trkpt lat="52.25875" lon="6.68081">
        <time>2017-09-22T00:38:57Z</time>
      </trkpt>
      <trkpt lat="52.26044" lon="6.68857">
        <time>2017-09-22T00:39:17Z</time>
      </trkpt>
      <trkpt lat="52.26056" lon="6.68934">
        <time>2017-09-22T00:39:19Z</time>
      </trkpt>
      <trkpt lat="52.26058" lon="6.6899">
        <time>2017-09-22T00:39:21Z</time>
      </trkpt>
      <trkpt lat="52.26053" lon="6.69136">
        <time>2017-09-22T00:39:24Z</time>
      </trkpt>
      <trkpt lat="52.26019" lon="6.69789">
        <time>2017-09-22T00:39:40Z</time>
      </trkpt>
      <trkpt lat="52.2601" lon="6.69977">
        <time>2017-09-22T00:39:45Z</time>
      </trkpt>
      <trkpt lat="52.26011" lon="6.70044">
        <time>2017-09-22T00:39:47Z</time>
      </trkpt>
      <trkpt lat="52.26015" lon="6.70092">
        <time>2017-09-22T00:39:48Z</time>
      </trkpt>
      <trkpt lat="52.26021" lon="6.7013">
        <time>2017-09-22T00:39:49Z</time>
      </trkpt>
      <trkpt lat="52.26021" lon="6.70131">
        <time>2017-09-22T00:39:49Z</time>
      </trkpt>
      <trkpt lat="52.2602" lon="6.70131">
        <time>2017-09-22T00:39:49Z</time>
      </trkpt>
      <trkpt lat="52.26019" lon="6.70132">
        <time>2017-09-22T00:39:49Z</time>
      </trkpt>
      <trkpt lat="52.26018" lon="6.70133">
        <time>2017-09-22T00:39:49Z</time>
      </trkpt>
      <trkpt lat="52.26017" lon="6.70135">
        <time>2017-09-22T00:39:49Z</time>
      </trkpt>
      <trkpt lat="52.26015" lon="6.70142">
        <time>2017-09-22T00:39:49Z</time>
      </trkpt>
      <trkpt lat="52.26016" lon="6.70149">
        <time>2017-09-22T00:39:50Z</time>
      </trkpt>
      <trkpt lat="52.26019" lon="6.70155">
        <time>2017-09-22T00:39:50Z</time>
      </trkpt>
      <trkpt lat="52.26023" lon="6.70156">
        <time>2017-09-22T00:39:50Z</time>
      </trkpt>
      <trkpt lat="52.26028" lon="6.70154">
        <time>2017-09-22T00:39:50Z</time>
      </trkpt>
      <trkpt lat="52.2603" lon="6.70148">
        <time>2017-09-22T00:39:50Z</time>
      </trkpt>
      <trkpt lat="52.26031" lon="6.7014">
        <time>2017-09-22T00:39:50Z</time>
      </trkpt>
      <trkpt lat="52.2603" lon="6.70138">
        <time>2017-09-22T00:39:51Z</time>
      </trkpt>
      <trkpt lat="52.26068" lon="6.70126">
        <time>2017-09-22T00:39:52Z</time>
      </trkpt>
      <trkpt lat="52.26102" lon="6.70122">
        <time>2017-09-22T00:39:53Z</time>
      </trkpt>
      <trkpt lat="52.26118" lon="6.70128">
        <time>2017-09-22T00:39:54Z</time>
      </trkpt>
      <trkpt lat="52.26153" lon="6.70147">
        <time>2017-09-22T00:39:56Z</time>
      </trkpt>
      <trkpt lat="52.26153" lon="6.70147">
        <time>2017-09-22T00:39:56Z</time>
      </trkpt>
      <trkpt lat="52.26233" lon="6.70189">
        <time>2017-09-22T00:39:59Z</time>
      </trkpt>
      <trkpt lat="52.2626" lon="6.70209">
        <time>2017-09-22T00:40:00Z</time>
      </trkpt>
      <trkpt lat="52.26315" lon="6.70233">
        <time>2017-09-22T00:40:03Z</time>
      </trkpt>
      <trkpt lat="52.2636" lon="6.70249">
        <time>2017-09-22T00:40:04Z</time>
      </trkpt>
      <trkpt lat="52.2641" lon="6.70255">
        <time>2017-09-22T00:40:06Z</time>
      </trkpt>
      <trkpt lat="52.26456" lon="6.70252">
        <time>2017-09-22T00:40:08Z</time>
      </trkpt>
      <trkpt lat="52.26494" lon="6.70244">
        <time>2017-09-22T00:40:10Z</time>
      </trkpt>
      <trkpt lat="52.26522" lon="6.70233">
        <time>2017-09-22T00:40:11Z</time>
      </trkpt>
      <trkpt lat="52.26542" lon="6.70223">
        <time>2017-09-22T00:40:12Z</time>
      </trkpt>
      <trkpt lat="52.26542" lon="6.70223">
        <time>2017-09-22T00:40:12Z</time>
      </trkpt>
      <trkpt lat="52.26575" lon="6.70205">
        <time>2017-09-22T00:40:13Z</time>
      </trkpt>
      <trkpt lat="52.26597" lon="6.7019">
        <time>2017-09-22T00:40:14Z</time>
      </trkpt>
      <trkpt lat="52.2662" lon="6.70172">
        <time>2017-09-22T00:40:15Z</time>
      </trkpt>
      <trkpt lat="52.2668" lon="6.70125">
        <time>2017-09-22T00:40:18Z</time>
      </trkpt>
      <trkpt lat="52.2668" lon="6.70125">
        <time>2017-09-22T00:40:18Z</time>
      </trkpt>
      <trkpt lat="52.26726" lon="6.70073">
        <time>2017-09-22T00:40:20Z</time>
      </trkpt>
      <trkpt lat="52.26738" lon="6.70123">
        <time>2017-09-22T00:40:22Z</time>
      </trkpt>
      <trkpt lat="52.26729" lon="6.70131">
        <time>2017-09-22T00:40:22Z</time>
      </trkpt>
      <trkpt lat="52.26713" lon="6.70139">
        <time>2017-09-22T00:40:23Z</time>
      </trkpt>
      <trkpt lat="52.26713" lon="6.70139">
        <time>2017-09-22T00:40:23Z</time>
      </trkpt>
      <trkpt lat="52.26691" lon="6.7015">
        <time>2017-09-22T00:40:24Z</time>
      </trkpt>
      <trkpt lat="52.26647" lon="6.70167">
        <time>2017-09-22T00:40:25Z</time>
      </trkpt>
      <trkpt lat="52.26606" lon="6.70195">
        <time>2017-09-22T00:40:27Z</time>
      </trkpt>
      <trkpt lat="52.26576" lon="6.70217">
        <time>2017-09-22T00:40:29Z</time>
      </trkpt>
      <trkpt lat="52.26555" lon="6.70239">
        <time>2017-09-22T00:40:30Z</time>
      </trkpt>
      <trkpt lat="52.26543" lon="6.70264">
        <time>2017-09-22T00:40:30Z</time>
      </trkpt>
      <trkpt lat="52.26536" lon="6.70289">
        <time>2017-09-22T00:40:31Z</time>
      </trkpt>
      <trkpt lat="52.26537" lon="6.70376">
        <time>2017-09-22T00:40:33Z</time>
      </trkpt>
      <trkpt lat="52.26538" lon="6.70511">
        <time>2017-09-22T00:40:37Z</time>
      </trkpt>
      <trkpt lat="52.26538" lon="6.70554">
        <time>2017-09-22T00:40:38Z</time>
      </trkpt>
      <trkpt lat="52.26533" lon="6.7058">
        <time>2017-09-22T00:40:38Z</time>
      </trkpt>
      <trkpt lat="52.26512" lon="6.70635">
        <time>2017-09-22T00:40:40Z</time>
      </trkpt>
      <trkpt lat="52.26478" lon="6.70709">
        <time>2017-09-22T00:40:42Z</time>
      </trkpt>
      <trkpt lat="52.2646" lon="6.70747">
        <time>2017-09-22T00:40:43Z</time>
      </trkpt>
      <trkpt lat="52.26457" lon="6.70759">
        <time>2017-09-22T00:40:44Z</time>
      </trkpt>
      <trkpt lat="52.2647" lon="6.70826">
        <time>2017-09-22T00:40:45Z</time>
      </trkpt>
      <trkpt lat="52.26477" lon="6.70855">
        <time>2017-09-22T00:40:46Z</time>
      </trkpt>
      <trkpt lat="52.26477" lon="6.70855">
        <time>2017-09-22T00:40:46Z</time>
      </trkpt>
      <trkpt lat="52.26481" lon="6.7087">
        <time>2017-09-22T00:40:47Z</time>
      </trkpt>
      <trkpt lat="52.2649" lon="6.7089">
        <time>2017-09-22T00:40:47Z</time>
      </trkpt>
      <trkpt lat="52.26502" lon="6.70908">
        <time>2017-09-22T00:40:48Z</time>
      </trkpt>
      <trkpt lat="52.26529" lon="6.70931">
        <time>2017-09-22T00:40:49Z</time>
      </trkpt>
      <trkpt lat="52.26537" lon="6.70938">
        <time>2017-09-22T00:40:49Z</time>
      </trkpt>
      <trkpt lat="52.26588" lon="6.70976">
        <time>2017-09-22T00:40:52Z</time>
      </trkpt>
      <trkpt lat="52.26593" lon="6.7098">
        <time>2017-09-22T00:40:52Z</time>
      </trkpt>
      <trkpt lat="52.26614" lon="6.70987">
        <time>2017-09-22T00:40:53Z</time>
      </trkpt>
      <trkpt lat="52.26623" lon="6.70987">
        <time>2017-09-22T00:40:53Z</time>
      </trkpt>
      <trkpt lat="52.26725" lon="6.70946">
        <time>2017-09-22T00:40:57Z</time>
      </trkpt>
      <trkpt lat="52.26772" lon="6.70948">
        <time>2017-09-22T00:40:59Z</time>
      </trkpt>
      <trkpt lat="52.26824" lon="6.70967">
        <time>2017-09-22T00:41:02Z</time>
      </trkpt>
      <trkpt lat="52.26853" lon="6.70993">
        <time>2017-09-22T00:41:03Z</time>
      </trkpt>
      <trkpt lat="52.26903" lon="6.71045">
        <time>2017-09-22T00:41:05Z</time>
      </trkpt>
      <trkpt lat="52.26903" lon="6.71045">
        <time>2017-09-22T00:41:05Z</time>
      </trkpt>
      <trkpt lat="52.27097" lon="6.71244">
        <time>2017-09-22T00:41:15Z</time>
      </trkpt>
      <trkpt lat="52.2712" lon="6.71278">
        <time>2017-09-22T00:41:16Z</time>
      </trkpt>
      <trkpt lat="52.27299" lon="6.71113">
        <time>2017-09-22T00:41:24Z</time>
      </trkpt>
      <trkpt lat="52.27299" lon="6.71113">
        <time>2017-09-22T00:41:24Z</time>
      </trkpt>
      <trkpt lat="52.27697" lon="6.70744">
        <time>2017-09-22T00:41:43Z</time>
      </trkpt>
      <trkpt lat="52.27951" lon="6.70514">
        <time>2017-09-22T00:41:54Z</time>
      </trkpt>
      <trkpt lat="52.27994" lon="6.70471">
        <time>2017-09-22T00:41:56Z</time>
      </trkpt>
      <trkpt lat="52.28088" lon="6.70542">
        <time>2017-09-22T00:42:01Z</time>
      </trkpt>
      <trkpt lat="52.2838" lon="6.70613">
        <time>2017-09-22T00:42:13Z</time>
      </trkpt>
      <trkpt lat="52.28514" lon="6.70611">
        <time>2017-09-22T00:42:18Z</time>
      </trkpt>
      <trkpt lat="52.28626" lon="6.70596">
        <time>2017-09-22T00:42:23Z</time>
      </trkpt>
      <trkpt lat="52.28761" lon="6.7056">
        <time>2017-09-22T00:42:28Z</time>
      </trkpt>
      <trkpt lat="52.28821" lon="6.70549">
        <time>2017-09-22T00:42:31Z</time>
      </trkpt>
      <trkpt lat="52.28879" lon="6.70547">
        <time>2017-09-22T00:42:33Z</time>
      </trkpt>
      <trkpt lat="52.28892" lon="6.70548">
        <time>2017-09-22T00:42:33Z</time>
      </trkpt>
      <trkpt lat="52.29082" lon="6.70854">
        <time>2017-09-22T00:42:44Z</time>
      </trkpt>
      <trkpt lat="52.2938" lon="6.71335">
        <time>2017-09-22T00:43:01Z</time>
      </trkpt>
      <trkpt lat="52.29424" lon="6.71427">
        <time>2017-09-22T00:43:04Z</time>
      </trkpt>
      <trkpt lat="52.29458" lon="6.71491">
        <time>2017-09-22T00:43:06Z</time>
      </trkpt>
      <trkpt lat="52.29487" lon="6.71517">
        <time>2017-09-22T00:43:07Z</time>
      </trkpt>
      <trkpt lat="52.29534" lon="6.71534">
        <time>2017-09-22T00:43:09Z</time>
      </trkpt>
      <trkpt lat="52.29573" lon="6.71537">
        <time>2017-09-22T00:43:11Z</time>
      </trkpt>
      <trkpt lat="52.29695" lon="6.7148">
        <time>2017-09-22T00:43:16Z</time>
      </trkpt>
      <trkpt lat="52.29695" lon="6.7148">
        <time>2017-09-22T00:43:16Z</time>
      </trkpt>
      <trkpt lat="52.29901" lon="6.71385">
        <time>2017-09-22T00:43:25Z</time>
      </trkpt>
      <trkpt lat="52.30126" lon="6.7128">
        <time>2017-09-22T00:43:34Z</time>
      </trkpt>
      <trkpt lat="52.30152" lon="6.71266">
        <time>2017-09-22T00:43:35Z</time>
      </trkpt>
      <trkpt lat="52.30157" lon="6.71262">
        <time>2017-09-22T00:43:36Z</time>
      </trkpt>
      <trkpt lat="52.30157" lon="6.71262">
        <time>2017-09-22T00:43:36Z</time>
      </trkpt>
      <trkpt lat="52.30186" lon="6.71242">
        <time>2017-09-22T00:43:37Z</time>
      </trkpt>
      <trkpt lat="52.30208" lon="6.71221">
        <time>2017-09-22T00:43:38Z</time>
      </trkpt>
      <trkpt lat="52.30238" lon="6.71186">
        <time>2017-09-22T00:43:39Z</time>
      </trkpt>
      <trkpt lat="52.30257" lon="6.7116">
        <time>2017-09-22T00:43:40Z</time>
      </trkpt>
      <trkpt lat="52.30297" lon="6.71108">
        <time>2017-09-22T00:43:42Z</time>
      </trkpt>
      <trkpt lat="52.30309" lon="6.71097">
        <time>2017-09-22T00:43:43Z</time>
      </trkpt>
      <trkpt lat="52.30321" lon="6.7109">
        <time>2017-09-22T00:43:44Z</time>
      </trkpt>
      <trkpt lat="52.30346" lon="6.71085">
        <time>2017-09-22T00:43:45Z</time>
      </trkpt>
      <trkpt lat="52.30368" lon="6.7109">
        <time>2017-09-22T00:43:45Z</time>
      </trkpt>
      <trkpt lat="52.30389" lon="6.71103">
        <time>2017-09-22T00:43:46Z</time>
      </trkpt>
      <trkpt lat="52.30436" lon="6.7116">
        <time>2017-09-22T00:43:49Z</time>
      </trkpt>
      <trkpt lat="52.30516" lon="6.71259">
        <time>2017-09-22T00:43:53Z</time>
      </trkpt>
      <trkpt lat="52.30528" lon="6.71268">
        <time>2017-09-22T00:43:53Z</time>
      </trkpt>
      <trkpt lat="52.30543" lon="6.71276">
        <time>2017-09-22T00:43:54Z</time>
      </trkpt>
      <trkpt lat="52.30561" lon="6.71279">
        <time>2017-09-22T00:43:55Z</time>
      </trkpt>
      <trkpt lat="52.30578" lon="6.71277">
        <time>2017-09-22T00:43:55Z</time>
      </trkpt>
      <trkpt lat="52.30679" lon="6.71256">
        <time>2017-09-22T00:44:00Z</time>
      </trkpt>
      <trkpt lat="52.30731" lon="6.71246">
        <time>2017-09-22T00:44:02Z</time>
      </trkpt>
      <trkpt lat="52.30808" lon="6.71252">
        <time>2017-09-22T00:44:05Z</time>
      </trkpt>
      <trkpt lat="52.3082" lon="6.71257">
        <time>2017-09-22T00:44:05Z</time>
      </trkpt>
      <trkpt lat="52.30832" lon="6.71265">
        <time>2017-09-22T00:44:06Z</time>
      </trkpt>
      <trkpt lat="52.30845" lon="6.71278">
        <time>2017-09-22T00:44:06Z</time>
      </trkpt>
      <trkpt lat="52.30726" lon="6.71605">
        <time>2017-09-22T00:44:16Z</time>
      </trkpt>
      <trkpt lat="52.30705" lon="6.71665">
        <time>2017-09-22T00:44:18Z</time>
      </trkpt>
      <trkpt lat="52.30705" lon="6.71665">
        <time>2017-09-22T00:44:18Z</time>
      </trkpt>
      <trkpt lat="52.30693" lon="6.71694">
        <time>2017-09-22T00:44:18Z</time>
      </trkpt>
      <trkpt lat="52.30673" lon="6.71739">
        <time>2017-09-22T00:44:20Z</time>
      </trkpt>
      <trkpt lat="52.30604" lon="6.7188">
        <time>2017-09-22T00:44:24Z</time>
      </trkpt>
      <trkpt lat="52.30598" lon="6.71891">
        <time>2017-09-22T00:44:25Z</time>
      </trkpt>
      <trkpt lat="52.30605" lon="6.71896">
        <time>2017-09-22T00:44:25Z</time>
      </trkpt>
      <trkpt lat="52.3065" lon="6.71921">
        <time>2017-09-22T00:44:27Z</time>
      </trkpt>
      <trkpt lat="52.3075" lon="6.71975">
        <time>2017-09-22T00:44:31Z</time>
      </trkpt>
      <trkpt lat="52.3076" lon="6.71975">
        <time>2017-09-22T00:44:32Z</time>
      </trkpt>
      <trkpt lat="52.30765" lon="6.71974">
        <time>2017-09-22T00:44:32Z</time>
      </trkpt>
      <trkpt lat="52.30765" lon="6.71974">
        <time>2017-09-22T00:44:32Z</time>
      </trkpt>
      <trkpt lat="52.30773" lon="6.71975">
        <time>2017-09-22T00:44:32Z</time>
      </trkpt>
      <trkpt lat="52.30823" lon="6.72005">
        <time>2017-09-22T00:44:34Z</time>
      </trkpt>
      <trkpt lat="52.30834" lon="6.72016">
        <time>2017-09-22T00:44:35Z</time>
      </trkpt>
      <trkpt lat="52.3084" lon="6.72031">
        <time>2017-09-22T00:44:35Z</time>
      </trkpt>
      <trkpt lat="52.30852" lon="6.72098">
        <time>2017-09-22T00:44:37Z</time>
      </trkpt>
      <trkpt lat="52.30868" lon="6.72154">
        <time>2017-09-22T00:44:38Z</time>
      </trkpt>
      <trkpt lat="52.30895" lon="6.72248">
        <time>2017-09-22T00:44:41Z</time>
      </trkpt>
      <trkpt lat="52.309" lon="6.72257">
        <time>2017-09-22T00:44:41Z</time>
      </trkpt>
      <trkpt lat="52.30907" lon="6.72258">
        <time>2017-09-22T00:44:42Z</time>
      </trkpt>
      <trkpt lat="52.30939" lon="6.7225">
        <time>2017-09-22T00:44:43Z</time>
      </trkpt>
      <trkpt lat="52.3094" lon="6.7225">
        <time>2017-09-22T00:44:43Z</time>
      </trkpt>
      <trkpt lat="52.3094" lon="6.7225">
        <time>2017-09-22T00:44:43Z</time>
      </trkpt>
      <trkpt lat="52.30953" lon="6.72245">
        <time>2017-09-22T00:44:43Z</time>
      </trkpt>
      <trkpt lat="52.30974" lon="6.72232">
        <time>2017-09-22T00:44:44Z</time>
      </trkpt>
      <trkpt lat="52.30986" lon="6.72227">
        <time>2017-09-22T00:44:45Z</time>
      </trkpt>
      <trkpt lat="52.30995" lon="6.7222">
        <time>2017-09-22T00:44:45Z</time>
      </trkpt>
      <trkpt lat="52.31005" lon="6.72215">
        <time>2017-09-22T00:44:46Z</time>
      </trkpt>
      <trkpt lat="52.31022" lon="6.72212">
        <time>2017-09-22T00:44:46Z</time>
      </trkpt>
      <trkpt lat="52.31042" lon="6.7221">
        <time>2017-09-22T00:44:47Z</time>
      </trkpt>
      <trkpt lat="52.31065" lon="6.72211">
        <time>2017-09-22T00:44:48Z</time>
      </trkpt>
      <trkpt lat="52.31133" lon="6.72223">
        <time>2017-09-22T00:44:51Z</time>
      </trkpt>
      <trkpt lat="52.31147" lon="6.72224">
        <time>2017-09-22T00:44:52Z</time>
      </trkpt>
      <trkpt lat="52.31335" lon="6.72168">
        <time>2017-09-22T00:44:59Z</time>
      </trkpt>
      <trkpt lat="52.31355" lon="6.72164">
        <time>2017-09-22T00:45:00Z</time>
      </trkpt>
      <trkpt lat="52.31366" lon="6.72167">
        <time>2017-09-22T00:45:01Z</time>
      </trkpt>
      <trkpt lat="52.31378" lon="6.72176">
        <time>2017-09-22T00:45:01Z</time>
      </trkpt>
      <trkpt lat="52.31393" lon="6.7219">
        <time>2017-09-22T00:45:02Z</time>
      </trkpt>
      <trkpt lat="52.31406" lon="6.72207">
        <time>2017-09-22T00:45:02Z</time>
      </trkpt>
      <trkpt lat="52.3142" lon="6.72225">
        <time>2017-09-22T00:45:03Z</time>
      </trkpt>
      <trkpt lat="52.31436" lon="6.72241">
        <time>2017-09-22T00:45:04Z</time>
      </trkpt>
      <trkpt lat="52.31444" lon="6.72246">
        <time>2017-09-22T00:45:04Z</time>
      </trkpt>
      <trkpt lat="52.31452" lon="6.72247">
        <time>2017-09-22T00:45:05Z</time>
      </trkpt>
      <trkpt lat="52.31495" lon="6.72244">
        <time>2017-09-22T00:45:06Z</time>
      </trkpt>
      <trkpt lat="52.31617" lon="6.72234">
        <time>2017-09-22T00:45:11Z</time>
      </trkpt>
      <trkpt lat="52.31643" lon="6.72229">
        <time>2017-09-22T00:45:12Z</time>
      </trkpt>
      <trkpt lat="52.31707" lon="6.72206">
        <time>2017-09-22T00:45:15Z</time>
      </trkpt>
      <trkpt lat="52.31722" lon="6.72189">
        <time>2017-09-22T00:45:16Z</time>
      </trkpt>
      <trkpt lat="52.31736" lon="6.72162">
        <time>2017-09-22T00:45:17Z</time>
      </trkpt>
      <trkpt lat="52.31751" lon="6.72127">
        <time>2017-09-22T00:45:18Z</time>
      </trkpt>
      <trkpt lat="52.31785" lon="6.72036">
        <time>2017-09-22T00:45:20Z</time>
      </trkpt>
      <trkpt lat="52.31796" lon="6.72013">
        <time>2017-09-22T00:45:21Z</time>
      </trkpt>
      <trkpt lat="52.31805" lon="6.72018">
        <time>2017-09-22T00:45:21Z</time>
      </trkpt>
      <trkpt lat="52.31814" lon="6.72019">
        <time>2017-09-22T00:45:22Z</time>
      </trkpt>
      <trkpt lat="52.31888" lon="6.71999">
        <time>2017-09-22T00:45:25Z</time>
      </trkpt>
      <trkpt lat="52.31894" lon="6.7201">
        <time>2017-09-22T00:45:25Z</time>
      </trkpt>
      <trkpt lat="52.31908" lon="6.72032">
        <time>2017-09-22T00:45:26Z</time>
      </trkpt>
      <trkpt lat="52.31915" lon="6.7204">
        <time>2017-09-22T00:45:26Z</time>
      </trkpt>
      <trkpt lat="52.31915" lon="6.7204">
        <time>2017-09-22T00:45:26Z</time>
      </trkpt>
      <trkpt lat="52.31922" lon="6.72049">
        <time>2017-09-22T00:45:27Z</time>
      </trkpt>
      <trkpt lat="52.31956" lon="6.72079">
        <time>2017-09-22T00:45:28Z</time>
      </trkpt>
      <trkpt lat="52.32012" lon="6.7212">
        <time>2017-09-22T00:45:31Z</time>
      </trkpt>
      <trkpt lat="52.32033" lon="6.72141">
        <time>2017-09-22T00:45:32Z</time>
      </trkpt>
      <trkpt lat="52.32049" lon="6.72095">
        <time>2017-09-22T00:45:33Z</time>
      </trkpt>
      <trkpt lat="52.32062" lon="6.72047">
        <time>2017-09-22T00:45:34Z</time>
      </trkpt>
      <trkpt lat="52.32073" lon="6.71991">
        <time>2017-09-22T00:45:36Z</time>
      </trkpt>
      <trkpt lat="52.32073" lon="6.71991">
        <time>2017-09-22T00:45:36Z</time>
      </trkpt>
      <trkpt lat="52.32091" lon="6.7191">
        <time>2017-09-22T00:45:38Z</time>
      </trkpt>
      <trkpt lat="52.321" lon="6.71888">
        <time>2017-09-22T00:45:39Z</time>
      </trkpt>
      <trkpt lat="52.32109" lon="6.71872">
        <time>2017-09-22T00:45:39Z</time>
      </trkpt>
      <trkpt lat="52.32144" lon="6.71831">
        <time>2017-09-22T00:45:41Z</time>
      </trkpt>
      <trkpt lat="52.32152" lon="6.71818">
        <time>2017-09-22T00:45:41Z</time>
      </trkpt>
      <trkpt lat="52.32193" lon="6.71733">
        <time>2017-09-22T00:45:44Z</time>
      </trkpt>
      <trkpt lat="52.32232" lon="6.71582">
        <time>2017-09-22T00:45:48Z</time>
      </trkpt>
      <trkpt lat="52.32234" lon="6.7156">
        <time>2017-09-22T00:45:49Z</time>
      </trkpt>
      <trkpt lat="52.32232" lon="6.71539">
        <time>2017-09-22T00:45:49Z</time>
      </trkpt>
      <trkpt lat="52.32227" lon="6.71522">
        <time>2017-09-22T00:45:50Z</time>
      </trkpt>
      <trkpt lat="52.32212" lon="6.71494">
        <time>2017-09-22T00:45:50Z</time>
      </trkpt>
      <trkpt lat="52.32207" lon="6.71473">
        <time>2017-09-22T00:45:51Z</time>
      </trkpt>
      <trkpt lat="52.322" lon="6.71426">
        <time>2017-09-22T00:45:52Z</time>
      </trkpt>
      <trkpt lat="52.32198" lon="6.7139">
        <time>2017-09-22T00:45:53Z</time>
      </trkpt>
      <trkpt lat="52.32198" lon="6.71351">
        <time>2017-09-22T00:45:54Z</time>
      </trkpt>
      <trkpt lat="52.32203" lon="6.71276">
        <time>2017-09-22T00:45:56Z</time>
      </trkpt>
      <trkpt lat="52.32209" lon="6.71238">
        <time>2017-09-22T00:45:57Z</time>
      </trkpt>
      <trkpt lat="52.32209" lon="6.71238">
        <time>2017-09-22T00:45:57Z</time>
      </trkpt>
      <trkpt lat="52.32218" lon="6.71202">
        <time>2017-09-22T00:45:58Z</time>
      </trkpt>
      <trkpt lat="52.32232" lon="6.71165">
        <time>2017-09-22T00:45:59Z</time>
      </trkpt>
      <trkpt lat="52.32297" lon="6.7103">
        <time>2017-09-22T00:46:03Z</time>
      </trkpt>
      <trkpt lat="52.32317" lon="6.70991">
        <time>2017-09-22T00:46:04Z</time>
      </trkpt>
      <trkpt lat="52.32406" lon="6.7112">
        <time>2017-09-22T00:46:09Z</time>
      </trkpt>
      <trkpt lat="52.32414" lon="6.71133">
        <time>2017-09-22T00:46:10Z</time>
      </trkpt>
      <trkpt lat="52.32419" lon="6.71151">
        <time>2017-09-22T00:46:10Z</time>
      </trkpt>
      <trkpt lat="52.32425" lon="6.71201">
        <time>2017-09-22T00:46:12Z</time>
      </trkpt>
      <trkpt lat="52.32426" lon="6.7123">
        <time>2017-09-22T00:46:12Z</time>
      </trkpt>
      <trkpt lat="52.32424" lon="6.71256">
        <time>2017-09-22T00:46:13Z</time>
      </trkpt>
      <trkpt lat="52.32422" lon="6.71271">
        <time>2017-09-22T00:46:13Z</time>
      </trkpt>
      <trkpt lat="52.32422" lon="6.71271">
        <time>2017-09-22T00:46:13Z</time>
      </trkpt>
      <trkpt lat="52.32405" lon="6.71406">
        <time>2017-09-22T00:46:17Z</time>
      </trkpt>
      <trkpt lat="52.32401" lon="6.71424">
        <time>2017-09-22T00:46:17Z</time>
      </trkpt>
      <trkpt lat="52.32381" lon="6.7146">
        <time>2017-09-22T00:46:18Z</time>
      </trkpt>
      <trkpt lat="52.3238" lon="6.71471">
        <time>2017-09-22T00:46:19Z</time>
      </trkpt>
      <trkpt lat="52.32395" lon="6.71579">
        <time>2017-09-22T00:46:21Z</time>
      </trkpt>
      <trkpt lat="52.32397" lon="6.71612">
        <time>2017-09-22T00:46:22Z</time>
      </trkpt>
      <trkpt lat="52.32395" lon="6.7166">
        <time>2017-09-22T00:46:23Z</time>
      </trkpt>
      <trkpt lat="52.32395" lon="6.7166">
        <time>2017-09-22T00:46:23Z</time>
      </trkpt>
      <trkpt lat="52.32393" lon="6.71728">
        <time>2017-09-22T00:46:25Z</time>
      </trkpt>
      <trkpt lat="52.32396" lon="6.71749">
        <time>2017-09-22T00:46:26Z</time>
      </trkpt>
      <trkpt lat="52.32407" lon="6.71775">
        <time>2017-09-22T00:46:26Z</time>
      </trkpt>
      <trkpt lat="52.32424" lon="6.71802">
        <time>2017-09-22T00:46:27Z</time>
      </trkpt>
      <trkpt lat="52.32436" lon="6.71814">
        <time>2017-09-22T00:46:28Z</time>
      </trkpt>
      <trkpt lat="52.32485" lon="6.71856">
        <time>2017-09-22T00:46:30Z</time>
      </trkpt>
      <trkpt lat="52.32479" lon="6.71874">
        <time>2017-09-22T00:46:31Z</time>
      </trkpt>
      <trkpt lat="52.32467" lon="6.71921">
        <time>2017-09-22T00:46:32Z</time>
      </trkpt>
      <trkpt lat="52.32443" lon="6.71994">
        <time>2017-09-22T00:46:34Z</time>
      </trkpt>
      <trkpt lat="52.3244" lon="6.72003">
        <time>2017-09-22T00:46:34Z</time>
      </trkpt>
      <trkpt lat="52.3244" lon="6.72003">
        <time>2017-09-22T00:46:34Z</time>
      </trkpt>
      <trkpt lat="52.32425" lon="6.72054">
        <time>2017-09-22T00:46:36Z</time>
      </trkpt>
      <trkpt lat="52.32416" lon="6.72094">
        <time>2017-09-22T00:46:37Z</time>
      </trkpt>
      <trkpt lat="52.3241" lon="6.72137">
        <time>2017-09-22T00:46:38Z</time>
      </trkpt>
      <trkpt lat="52.32408" lon="6.72179">
        <time>2017-09-22T00:46:39Z</time>
      </trkpt>
      <trkpt lat="52.32402" lon="6.72289">
        <time>2017-09-22T00:46:42Z</time>
      </trkpt>
      <trkpt lat="52.32398" lon="6.72368">
        <time>2017-09-22T00:46:43Z</time>
      </trkpt>
      <trkpt lat="52.32383" lon="6.72425">
        <time>2017-09-22T00:46:45Z</time>
      </trkpt>
      <trkpt lat="52.32372" lon="6.72458">
        <time>2017-09-22T00:46:46Z</time>
      </trkpt>
      <trkpt lat="52.32363" lon="6.72475">
        <time>2017-09-22T00:46:47Z</time>
      </trkpt>
      <trkpt lat="52.32353" lon="6.72498">
        <time>2017-09-22T00:46:47Z</time>
      </trkpt>
      <trkpt lat="52.32303" lon="6.72559">
        <time>2017-09-22T00:46:50Z</time>
      </trkpt>
      <trkpt lat="52.32253" lon="6.72617">
        <time>2017-09-22T00:46:52Z</time>
      </trkpt>
      <trkpt lat="52.32203" lon="6.72676">
        <time>2017-09-22T00:46:55Z</time>
      </trkpt>
      <trkpt lat="52.32194" lon="6.72681">
        <time>2017-09-22T00:46:55Z</time>
      </trkpt>
      <trkpt lat="52.32181" lon="6.72696">
        <time>2017-09-22T00:46:56Z</time>
      </trkpt>
      <trkpt lat="52.3215" lon="6.72731">
        <time>2017-09-22T00:46:57Z</time>
      </trkpt>
      <trkpt lat="52.32144" lon="6.72738">
        <time>2017-09-22T00:46:58Z</time>
      </trkpt>
      <trkpt lat="52.32142" lon="6.72735">
        <time>2017-09-22T00:46:58Z</time>
      </trkpt>
      <trkpt lat="52.32136" lon="6.7273">
        <time>2017-09-22T00:46:58Z</time>
      </trkpt>
      <trkpt lat="52.3213" lon="6.72728">
        <time>2017-09-22T00:46:58Z</time>
      </trkpt>
      <trkpt lat="52.32122" lon="6.72734">
        <time>2017-09-22T00:46:59Z</time>
      </trkpt>
      <trkpt lat="52.32117" lon="6.72745">
        <time>2017-09-22T00:46:59Z</time>
      </trkpt>
      <trkpt lat="52.32117" lon="6.72759">
        <time>2017-09-22T00:46:59Z</time>
      </trkpt>
      <trkpt lat="52.32121" lon="6.72772">
        <time>2017-09-22T00:47:00Z</time>
      </trkpt>
      <trkpt lat="52.32126" lon="6.72777">
        <time>2017-09-22T00:47:00Z</time>
      </trkpt>
      <trkpt lat="52.3213" lon="6.72778">
        <time>2017-09-22T00:47:00Z</time>
      </trkpt>
      <trkpt lat="52.3214" lon="6.72772">
        <time>2017-09-22T00:47:00Z</time>
      </trkpt>
      <trkpt lat="52.32162" lon="6.72811">
        <time>2017-09-22T00:47:02Z</time>
      </trkpt>
      <trkpt lat="52.32169" lon="6.72831">
        <time>2017-09-22T00:47:02Z</time>
      </trkpt>
      <trkpt lat="52.32183" lon="6.72887">
        <time>2017-09-22T00:47:04Z</time>
      </trkpt>
      <trkpt lat="52.32183" lon="6.72887">
        <time>2017-09-22T00:47:04Z</time>
      </trkpt>
      <trkpt lat="52.32197" lon="6.72956">
        <time>2017-09-22T00:47:06Z</time>
      </trkpt>
      <trkpt lat="52.32199" lon="6.72985">
        <time>2017-09-22T00:47:06Z</time>
      </trkpt>
      <trkpt lat="52.32197" lon="6.73016">
        <time>2017-09-22T00:47:07Z</time>
      </trkpt>
      <trkpt lat="52.32193" lon="6.73063">
        <time>2017-09-22T00:47:08Z</time>
      </trkpt>
      <trkpt lat="52.32194" lon="6.73097">
        <time>2017-09-22T00:47:09Z</time>
      </trkpt>
      <trkpt lat="52.32198" lon="6.73166">
        <time>2017-09-22T00:47:11Z</time>
      </trkpt>
      <trkpt lat="52.32198" lon="6.73297">
        <time>2017-09-22T00:47:14Z</time>
      </trkpt>
      <trkpt lat="52.32199" lon="6.73321">
        <time>2017-09-22T00:47:15Z</time>
      </trkpt>
      <trkpt lat="52.32202" lon="6.73342">
        <time>2017-09-22T00:47:15Z</time>
      </trkpt>
      <trkpt lat="52.32218" lon="6.73406">
        <time>2017-09-22T00:47:17Z</time>
      </trkpt>
      <trkpt lat="52.32226" lon="6.73454">
        <time>2017-09-22T00:47:18Z</time>
      </trkpt>
      <trkpt lat="52.32297" lon="6.73839">
        <time>2017-09-22T00:47:28Z</time>
      </trkpt>
      <trkpt lat="52.32303" lon="6.73853">
        <time>2017-09-22T00:47:29Z</time>
      </trkpt>
      <trkpt lat="52.32348" lon="6.73899">
        <time>2017-09-22T00:47:31Z</time>
      </trkpt>
      <trkpt lat="52.32421" lon="6.74018">
        <time>2017-09-22T00:47:35Z</time>
      </trkpt>
      <trkpt lat="52.32505" lon="6.74182">
        <time>2017-09-22T00:47:40Z</time>
      </trkpt>
      <trkpt lat="52.32553" lon="6.74262">
        <time>2017-09-22T00:47:43Z</time>
      </trkpt>
      <trkpt lat="52.32573" lon="6.74295">
        <time>2017-09-22T00:47:44Z</time>
      </trkpt>
      <trkpt lat="52.3258" lon="6.74301">
        <time>2017-09-22T00:47:44Z</time>
      </trkpt>
      <trkpt lat="52.32588" lon="6.74304">
        <time>2017-09-22T00:47:45Z</time>
      </trkpt>
      <trkpt lat="52.32597" lon="6.74303">
        <time>2017-09-22T00:47:45Z</time>
      </trkpt>
      <trkpt lat="52.32621" lon="6.7429">
        <time>2017-09-22T00:47:46Z</time>
      </trkpt>
      <trkpt lat="52.32699" lon="6.74264">
        <time>2017-09-22T00:47:49Z</time>
      </trkpt>
      <trkpt lat="52.32717" lon="6.74259">
        <time>2017-09-22T00:47:50Z</time>
      </trkpt>
      <trkpt lat="52.32722" lon="6.74263">
        <time>2017-09-22T00:47:50Z</time>
      </trkpt>
      <trkpt lat="52.32725" lon="6.7427">
        <time>2017-09-22T00:47:51Z</time>
      </trkpt>
      <trkpt lat="52.32735" lon="6.74365">
        <time>2017-09-22T00:47:53Z</time>
      </trkpt>
      <trkpt lat="52.32735" lon="6.74365">
        <time>2017-09-22T00:47:53Z</time>
      </trkpt>
      <trkpt lat="52.32737" lon="6.74382">
        <time>2017-09-22T00:47:53Z</time>
      </trkpt>
      <trkpt lat="52.32736" lon="6.74402">
        <time>2017-09-22T00:47:54Z</time>
      </trkpt>
      <trkpt lat="52.32733" lon="6.74421">
        <time>2017-09-22T00:47:54Z</time>
      </trkpt>
      <trkpt lat="52.32691" lon="6.74532">
        <time>2017-09-22T00:47:58Z</time>
      </trkpt>
      <trkpt lat="52.32657" lon="6.7463">
        <time>2017-09-22T00:48:00Z</time>
      </trkpt>
      <trkpt lat="52.32654" lon="6.7465">
        <time>2017-09-22T00:48:01Z</time>
      </trkpt>
      <trkpt lat="52.32653" lon="6.74668">
        <time>2017-09-22T00:48:01Z</time>
      </trkpt>
      <trkpt lat="52.32656" lon="6.74685">
        <time>2017-09-22T00:48:02Z</time>
      </trkpt>
      <trkpt lat="52.32661" lon="6.74698">
        <time>2017-09-22T00:48:02Z</time>
      </trkpt>
      <trkpt lat="52.32679" lon="6.7477">
        <time>2017-09-22T00:48:04Z</time>
      </trkpt>
      <trkpt lat="52.32684" lon="6.74799">
        <time>2017-09-22T00:48:05Z</time>
      </trkpt>
      <trkpt lat="52.32682" lon="6.74821">
        <time>2017-09-22T00:48:05Z</time>
      </trkpt>
      <trkpt lat="52.32676" lon="6.7484">
        <time>2017-09-22T00:48:06Z</time>
      </trkpt>
      <trkpt lat="52.32653" lon="6.74888">
        <time>2017-09-22T00:48:07Z</time>
      </trkpt>
      <trkpt lat="52.32633" lon="6.74929">
        <time>2017-09-22T00:48:09Z</time>
      </trkpt>
      <trkpt lat="52.32593" lon="6.75031">
        <time>2017-09-22T00:48:12Z</time>
      </trkpt>
      <trkpt lat="52.32593" lon="6.75031">
        <time>2017-09-22T00:48:12Z</time>
      </trkpt>
      <trkpt lat="52.32465" lon="6.75357">
        <time>2017-09-22T00:48:21Z</time>
      </trkpt>
      <trkpt lat="52.3229" lon="6.75387">
        <time>2017-09-22T00:48:28Z</time>
      </trkpt>
      <trkpt lat="52.32158" lon="6.75697">
        <time>2017-09-22T00:48:38Z</time>
      </trkpt>
      <trkpt lat="52.32095" lon="6.75837">
        <time>2017-09-22T00:48:42Z</time>
      </trkpt>
      <trkpt lat="52.32095" lon="6.75837">
        <time>2017-09-22T00:48:42Z</time>
      </trkpt>
      <trkpt lat="52.32051" lon="6.75935">
        <time>2017-09-22T00:48:45Z</time>
      </trkpt>
      <trkpt lat="52.32036" lon="6.75967">
        <time>2017-09-22T00:48:46Z</time>
      </trkpt>
      <trkpt lat="52.32029" lon="6.75983">
        <time>2017-09-22T00:48:47Z</time>
      </trkpt>
      <trkpt lat="52.32014" lon="6.76">
        <time>2017-09-22T00:48:47Z</time>
      </trkpt>
      <trkpt lat="52.31984" lon="6.76033">
        <time>2017-09-22T00:48:49Z</time>
      </trkpt>
      <trkpt lat="52.31855" lon="6.76176">
        <time>2017-09-22T00:48:55Z</time>
      </trkpt>
      <trkpt lat="52.31846" lon="6.76188">
        <time>2017-09-22T00:48:55Z</time>
      </trkpt>
      <trkpt lat="52.31807" lon="6.76259">
        <time>2017-09-22T00:48:58Z</time>
      </trkpt>
      <trkpt lat="52.31643" lon="6.76577">
        <time>2017-09-22T00:49:08Z</time>
      </trkpt>
      <trkpt lat="52.31613" lon="6.7663">
        <time>2017-09-22T00:49:10Z</time>
      </trkpt>
      <trkpt lat="52.31607" lon="6.76647">
        <time>2017-09-22T00:49:10Z</time>
      </trkpt>
      <trkpt lat="52.31606" lon="6.7666">
        <time>2017-09-22T00:49:11Z</time>
      </trkpt>
      <trkpt lat="52.31624" lon="6.76747">
        <time>2017-09-22T00:49:13Z</time>
      </trkpt>
      <trkpt lat="52.31611" lon="6.76805">
        <time>2017-09-22T00:49:15Z</time>
      </trkpt>
      <trkpt lat="52.31585" lon="6.76899">
        <time>2017-09-22T00:49:17Z</time>
      </trkpt>
      <trkpt lat="52.31598" lon="6.76911">
        <time>2017-09-22T00:49:18Z</time>
      </trkpt>
      <trkpt lat="52.31637" lon="6.76954">
        <time>2017-09-22T00:49:20Z</time>
      </trkpt>
      <trkpt lat="52.31637" lon="6.76954">
        <time>2017-09-22T00:49:20Z</time>
      </trkpt>
      <trkpt lat="52.31654" lon="6.76976">
        <time>2017-09-22T00:49:20Z</time>
      </trkpt>
      <trkpt lat="52.31681" lon="6.77001">
        <time>2017-09-22T00:49:22Z</time>
      </trkpt>
      <trkpt lat="52.31753" lon="6.7706">
        <time>2017-09-22T00:49:25Z</time>
      </trkpt>
      <trkpt lat="52.31825" lon="6.7712">
        <time>2017-09-22T00:49:28Z</time>
      </trkpt>
      <trkpt lat="52.31843" lon="6.7713">
        <time>2017-09-22T00:49:29Z</time>
      </trkpt>
      <trkpt lat="52.31898" lon="6.77135">
        <time>2017-09-22T00:49:31Z</time>
      </trkpt>
      <trkpt lat="52.3191" lon="6.7714">
        <time>2017-09-22T00:49:32Z</time>
      </trkpt>
      <trkpt lat="52.3192" lon="6.77155">
        <time>2017-09-22T00:49:32Z</time>
      </trkpt>
      <trkpt lat="52.31925" lon="6.77172">
        <time>2017-09-22T00:49:33Z</time>
      </trkpt>
      <trkpt lat="52.31944" lon="6.77318">
        <time>2017-09-22T00:49:36Z</time>
      </trkpt>
      <trkpt lat="52.3195" lon="6.77361">
        <time>2017-09-22T00:49:38Z</time>
      </trkpt>
      <trkpt lat="52.31956" lon="6.77382">
        <time>2017-09-22T00:49:38Z</time>
      </trkpt>
      <trkpt lat="52.32013" lon="6.77571">
        <time>2017-09-22T00:49:43Z</time>
      </trkpt>
      <trkpt lat="52.32027" lon="6.77608">
        <time>2017-09-22T00:49:44Z</time>
      </trkpt>
      <trkpt lat="52.32051" lon="6.7765">
        <time>2017-09-22T00:49:46Z</time>
      </trkpt>
      <trkpt lat="52.32085" lon="6.77695">
        <time>2017-09-22T00:49:48Z</time>
      </trkpt>
      <trkpt lat="52.3215" lon="6.77762">
        <time>2017-09-22T00:49:51Z</time>
      </trkpt>
      <trkpt lat="52.32326" lon="6.7792">
        <time>2017-09-22T00:49:59Z</time>
      </trkpt>
      <trkpt lat="52.32351" lon="6.77943">
        <time>2017-09-22T00:50:00Z</time>
      </trkpt>
      <trkpt lat="52.32458" lon="6.78041">
        <time>2017-09-22T00:50:05Z</time>
      </trkpt>
      <trkpt lat="52.32632" lon="6.78198">
        <time>2017-09-22T00:50:13Z</time>
      </trkpt>
      <trkpt lat="52.3272" lon="6.78275">
        <time>2017-09-22T00:50:17Z</time>
      </trkpt>
      <trkpt lat="52.32728" lon="6.78284">
        <time>2017-09-22T00:50:17Z</time>
      </trkpt>
      <trkpt lat="52.32729" lon="6.78288">
        <time>2017-09-22T00:50:18Z</time>
      </trkpt>
      <trkpt lat="52.32729" lon="6.78299">
        <time>2017-09-22T00:50:18Z</time>
      </trkpt>
      <trkpt lat="52.32722" lon="6.78333">
        <time>2017-09-22T00:50:19Z</time>
      </trkpt>
      <trkpt lat="52.32713" lon="6.78467">
        <time>2017-09-22T00:50:22Z</time>
      </trkpt>
      <trkpt lat="52.32712" lon="6.785">
        <time>2017-09-22T00:50:23Z</time>
      </trkpt>
      <trkpt lat="52.32713" lon="6.78549">
        <time>2017-09-22T00:50:24Z</time>
      </trkpt>
      <trkpt lat="52.32726" lon="6.78691">
        <time>2017-09-22T00:50:28Z</time>
      </trkpt>
      <trkpt lat="52.32728" lon="6.78701">
        <time>2017-09-22T00:50:28Z</time>
      </trkpt>
      <trkpt lat="52.32729" lon="6.78707">
        <time>2017-09-22T00:50:28Z</time>
      </trkpt>
      <trkpt lat="52.32729" lon="6.78707">
        <time>2017-09-22T00:50:28Z</time>
      </trkpt>
      <trkpt lat="52.32734" lon="6.78722">
        <time>2017-09-22T00:50:29Z</time>
      </trkpt>
      <trkpt lat="52.32758" lon="6.78817">
        <time>2017-09-22T00:50:31Z</time>
      </trkpt>
      <trkpt lat="52.32804" lon="6.78979">
        <time>2017-09-22T00:50:35Z</time>
      </trkpt>
      <trkpt lat="52.32812" lon="6.79026">
        <time>2017-09-22T00:50:37Z</time>
      </trkpt>
      <trkpt lat="52.32814" lon="6.79053">
        <time>2017-09-22T00:50:37Z</time>
      </trkpt>
      <trkpt lat="52.32812" lon="6.79103">
        <time>2017-09-22T00:50:39Z</time>
      </trkpt>
      <trkpt lat="52.3278" lon="6.79364">
        <time>2017-09-22T00:50:45Z</time>
      </trkpt>
      <trkpt lat="52.32747" lon="6.79633">
        <time>2017-09-22T00:50:52Z</time>
      </trkpt>
      <trkpt lat="52.32748" lon="6.79651">
        <time>2017-09-22T00:50:52Z</time>
      </trkpt>
      <trkpt lat="52.32756" lon="6.79943">
        <time>2017-09-22T00:51:00Z</time>
      </trkpt>
      <trkpt lat="52.3276" lon="6.7997">
        <time>2017-09-22T00:51:00Z</time>
      </trkpt>
      <trkpt lat="52.32774" lon="6.80252">
        <time>2017-09-22T00:51:07Z</time>
      </trkpt>
      <trkpt lat="52.32785" lon="6.80532">
        <time>2017-09-22T00:51:14Z</time>
      </trkpt>
      <trkpt lat="52.32788" lon="6.80562">
        <time>2017-09-22T00:51:15Z</time>
      </trkpt>
      <trkpt lat="52.32794" lon="6.80581">
        <time>2017-09-22T00:51:16Z</time>
      </trkpt>
      <trkpt lat="52.32765" lon="6.80637">
        <time>2017-09-22T00:51:17Z</time>
      </trkpt>
      <trkpt lat="52.32765" lon="6.80637">
        <time>2017-09-22T00:51:17Z</time>
      </trkpt>
      <trkpt lat="52.32755" lon="6.80651">
        <time>2017-09-22T00:51:18Z</time>
      </trkpt>
      <trkpt lat="52.32747" lon="6.80658">
        <time>2017-09-22T00:51:18Z</time>
      </trkpt>
      <trkpt lat="52.32729" lon="6.80665">
        <time>2017-09-22T00:51:19Z</time>
      </trkpt>
      <trkpt lat="52.32708" lon="6.80677">
        <time>2017-09-22T00:51:20Z</time>
      </trkpt>
      <trkpt lat="52.32687" lon="6.80708">
        <time>2017-09-22T00:51:21Z</time>
      </trkpt>
      <trkpt lat="52.32646" lon="6.80778">
        <time>2017-09-22T00:51:23Z</time>
      </trkpt>
      <trkpt lat="52.32624" lon="6.80819">
        <time>2017-09-22T00:51:25Z</time>
      </trkpt>
      <trkpt lat="52.32617" lon="6.80839">
        <time>2017-09-22T00:51:25Z</time>
      </trkpt>
      <trkpt lat="52.32607" lon="6.80872">
        <time>2017-09-22T00:51:26Z</time>
      </trkpt>
      <trkpt lat="52.32582" lon="6.81064">
        <time>2017-09-22T00:51:31Z</time>
      </trkpt>
      <trkpt lat="52.32545" lon="6.81361">
        <time>2017-09-22T00:51:39Z</time>
      </trkpt>
      <trkpt lat="52.32538" lon="6.81383">
        <time>2017-09-22T00:51:39Z</time>
      </trkpt>
      <trkpt lat="52.32529" lon="6.81401">
        <time>2017-09-22T00:51:40Z</time>
      </trkpt>
      <trkpt lat="52.3252" lon="6.81411">
        <time>2017-09-22T00:51:40Z</time>
      </trkpt>
      <trkpt lat="52.32499" lon="6.81424">
        <time>2017-09-22T00:51:41Z</time>
      </trkpt>
      <trkpt lat="52.32448" lon="6.81449">
        <time>2017-09-22T00:51:43Z</time>
      </trkpt>
      <trkpt lat="52.32428" lon="6.81465">
        <time>2017-09-22T00:51:44Z</time>
      </trkpt>
      <trkpt lat="52.32395" lon="6.81528">
        <time>2017-09-22T00:51:46Z</time>
      </trkpt>
      <trkpt lat="52.32322" lon="6.81636">
        <time>2017-09-22T00:51:50Z</time>
      </trkpt>
      <trkpt lat="52.32223" lon="6.81771">
        <time>2017-09-22T00:51:56Z</time>
      </trkpt>
      <trkpt lat="52.32244" lon="6.81928">
        <time>2017-09-22T00:51:59Z</time>
      </trkpt>
      <trkpt lat="52.32251" lon="6.8197">
        <time>2017-09-22T00:52:01Z</time>
      </trkpt>
      <trkpt lat="52.32265" lon="6.82083">
        <time>2017-09-22T00:52:03Z</time>
      </trkpt>
      <trkpt lat="52.32265" lon="6.82083">
        <time>2017-09-22T00:52:03Z</time>
      </trkpt>
      <trkpt lat="52.32315" lon="6.82441">
        <time>2017-09-22T00:52:13Z</time>
      </trkpt>
      <trkpt lat="52.32345" lon="6.82677">
        <time>2017-09-22T00:52:18Z</time>
      </trkpt>
      <trkpt lat="52.32352" lon="6.8275">
        <time>2017-09-22T00:52:20Z</time>
      </trkpt>
      <trkpt lat="52.32356" lon="6.8282">
        <time>2017-09-22T00:52:22Z</time>
      </trkpt>
      <trkpt lat="52.32357" lon="6.82846">
        <time>2017-09-22T00:52:23Z</time>
      </trkpt>
      <trkpt lat="52.32355" lon="6.82871">
        <time>2017-09-22T00:52:23Z</time>
      </trkpt>
      <trkpt lat="52.32495" lon="6.82862">
        <time>2017-09-22T00:52:29Z</time>
      </trkpt>
      <trkpt lat="52.32495" lon="6.82862">
        <time>2017-09-22T00:52:29Z</time>
      </trkpt>
      <trkpt lat="52.32574" lon="6.82857">
        <time>2017-09-22T00:52:32Z</time>
      </trkpt>
      <trkpt lat="52.32771" lon="6.82824">
        <time>2017-09-22T00:52:40Z</time>
      </trkpt>
      <trkpt lat="52.32725" lon="6.82968">
        <time>2017-09-22T00:52:44Z</time>
      </trkpt>
      <trkpt lat="52.32725" lon="6.82968">
        <time>2017-09-22T00:52:44Z</time>
      </trkpt>
      <trkpt lat="52.32722" lon="6.82994">
        <time>2017-09-22T00:52:45Z</time>
      </trkpt>
      <trkpt lat="52.32754" lon="6.83165">
        <time>2017-09-22T00:52:49Z</time>
      </trkpt>
      <trkpt lat="52.32797" lon="6.83386">
        <time>2017-09-22T00:52:55Z</time>
      </trkpt>
      <trkpt lat="52.32841" lon="6.836">
        <time>2017-09-22T00:53:01Z</time>
      </trkpt>
      <trkpt lat="52.32867" lon="6.8372">
        <time>2017-09-22T00:53:04Z</time>
      </trkpt>
      <trkpt lat="52.32943" lon="6.83834">
        <time>2017-09-22T00:53:08Z</time>
      </trkpt>
      <trkpt lat="52.32946" lon="6.83845">
        <time>2017-09-22T00:53:08Z</time>
      </trkpt>
      <trkpt lat="52.3294" lon="6.83925">
        <time>2017-09-22T00:53:10Z</time>
      </trkpt>
      <trkpt lat="52.3291" lon="6.84253">
        <time>2017-09-22T00:53:18Z</time>
      </trkpt>
      <trkpt lat="52.32908" lon="6.84282">
        <time>2017-09-22T00:53:19Z</time>
      </trkpt>
      <trkpt lat="52.32933" lon="6.84307">
        <time>2017-09-22T00:53:20Z</time>
      </trkpt>
      <trkpt lat="52.33067" lon="6.84361">
        <time>2017-09-22T00:53:26Z</time>
      </trkpt>
      <trkpt lat="52.33067" lon="6.84361">
        <time>2017-09-22T00:53:26Z</time>
      </trkpt>
      <trkpt lat="52.33193" lon="6.84415">
        <time>2017-09-22T00:53:31Z</time>
      </trkpt>
      <trkpt lat="52.33219" lon="6.84417">
        <time>2017-09-22T00:53:32Z</time>
      </trkpt>
      <trkpt lat="52.3332" lon="6.84417">
        <time>2017-09-22T00:53:36Z</time>
      </trkpt>
      <trkpt lat="52.33359" lon="6.84421">
        <time>2017-09-22T00:53:38Z</time>
      </trkpt>
      <trkpt lat="52.33385" lon="6.8443">
        <time>2017-09-22T00:53:39Z</time>
      </trkpt>
      <trkpt lat="52.33399" lon="6.84438">
        <time>2017-09-22T00:53:40Z</time>
      </trkpt>
      <trkpt lat="52.33722" lon="6.84565">
        <time>2017-09-22T00:53:53Z</time>
      </trkpt>
      <trkpt lat="52.33816" lon="6.84602">
        <time>2017-09-22T00:53:57Z</time>
      </trkpt>
      <trkpt lat="52.33952" lon="6.84658">
        <time>2017-09-22T00:54:03Z</time>
      </trkpt>
      <trkpt lat="52.34131" lon="6.84735">
        <time>2017-09-22T00:54:10Z</time>
      </trkpt>
      <trkpt lat="52.34154" lon="6.84736">
        <time>2017-09-22T00:54:11Z</time>
      </trkpt>
      <trkpt lat="52.34202" lon="6.84744">
        <time>2017-09-22T00:54:13Z</time>
      </trkpt>
      <trkpt lat="52.34355" lon="6.84773">
        <time>2017-09-22T00:54:19Z</time>
      </trkpt>
      <trkpt lat="52.34365" lon="6.84777">
        <time>2017-09-22T00:54:20Z</time>
      </trkpt>
      <trkpt lat="52.3461" lon="6.84959">
        <time>2017-09-22T00:54:31Z</time>
      </trkpt>
      <trkpt lat="52.3462" lon="6.84961">
        <time>2017-09-22T00:54:31Z</time>
      </trkpt>
      <trkpt lat="52.34656" lon="6.84956">
        <time>2017-09-22T00:54:32Z</time>
      </trkpt>
      <trkpt lat="52.34663" lon="6.84997">
        <time>2017-09-22T00:54:34Z</time>
      </trkpt>
      <trkpt lat="52.34663" lon="6.84997">
        <time>2017-09-22T00:54:34Z</time>
      </trkpt>
      <trkpt lat="52.34679" lon="6.85046">
        <time>2017-09-22T00:54:35Z</time>
      </trkpt>
      <trkpt lat="52.34692" lon="6.85081">
        <time>2017-09-22T00:54:36Z</time>
      </trkpt>
      <trkpt lat="52.34706" lon="6.85112">
        <time>2017-09-22T00:54:37Z</time>
      </trkpt>
      <trkpt lat="52.34731" lon="6.85148">
        <time>2017-09-22T00:54:38Z</time>
      </trkpt>
      <trkpt lat="52.34757" lon="6.85192">
        <time>2017-09-22T00:54:40Z</time>
      </trkpt>
      <trkpt lat="52.34787" lon="6.85248">
        <time>2017-09-22T00:54:42Z</time>
      </trkpt>
      <trkpt lat="52.34882" lon="6.85397">
        <time>2017-09-22T00:54:47Z</time>
      </trkpt>
      <trkpt lat="52.34927" lon="6.85467">
        <time>2017-09-22T00:54:49Z</time>
      </trkpt>
      <trkpt lat="52.34962" lon="6.85517">
        <time>2017-09-22T00:54:51Z</time>
      </trkpt>
      <trkpt lat="52.34989" lon="6.85563">
        <time>2017-09-22T00:54:53Z</time>
      </trkpt>
      <trkpt lat="52.35002" lon="6.85584">
        <time>2017-09-22T00:54:54Z</time>
      </trkpt>
      <trkpt lat="52.35012" lon="6.85608">
        <time>2017-09-22T00:54:54Z</time>
      </trkpt>
      <trkpt lat="52.35048" lon="6.85686">
        <time>2017-09-22T00:54:57Z</time>
      </trkpt>
      <trkpt lat="52.35072" lon="6.85728">
        <time>2017-09-22T00:54:58Z</time>
      </trkpt>
      <trkpt lat="52.35086" lon="6.85733">
        <time>2017-09-22T00:54:59Z</time>
      </trkpt>
      <trkpt lat="52.35114" lon="6.85743">
        <time>2017-09-22T00:55:00Z</time>
      </trkpt>
      <trkpt lat="52.35128" lon="6.85746">
        <time>2017-09-22T00:55:00Z</time>
      </trkpt>
      <trkpt lat="52.35163" lon="6.85748">
        <time>2017-09-22T00:55:02Z</time>
      </trkpt>
      <trkpt lat="52.35202" lon="6.85749">
        <time>2017-09-22T00:55:03Z</time>
      </trkpt>
      <trkpt lat="52.35213" lon="6.85748">
        <time>2017-09-22T00:55:04Z</time>
      </trkpt>
      <trkpt lat="52.35277" lon="6.85736">
        <time>2017-09-22T00:55:07Z</time>
      </trkpt>
      <trkpt lat="52.35359" lon="6.85721">
        <time>2017-09-22T00:55:10Z</time>
      </trkpt>
      <trkpt lat="52.35412" lon="6.85712">
        <time>2017-09-22T00:55:12Z</time>
      </trkpt>
      <trkpt lat="52.35412" lon="6.85712">
        <time>2017-09-22T00:55:12Z</time>
      </trkpt>
      <trkpt lat="52.35536" lon="6.85689">
        <time>2017-09-22T00:55:17Z</time>
      </trkpt>
      <trkpt lat="52.35682" lon="6.8566">
        <time>2017-09-22T00:55:23Z</time>
      </trkpt>
      <trkpt lat="52.35717" lon="6.85653">
        <time>2017-09-22T00:55:24Z</time>
      </trkpt>
      <trkpt lat="52.35864" lon="6.85611">
        <time>2017-09-22T00:55:30Z</time>
      </trkpt>
      <trkpt lat="52.36037" lon="6.85559">
        <time>2017-09-22T00:55:38Z</time>
      </trkpt>
      <trkpt lat="52.36083" lon="6.8554">
        <time>2017-09-22T00:55:40Z</time>
      </trkpt>
      <trkpt lat="52.36136" lon="6.85508">
        <time>2017-09-22T00:55:42Z</time>
      </trkpt>
      <trkpt lat="52.36243" lon="6.8543">
        <time>2017-09-22T00:55:47Z</time>
      </trkpt>
      <trkpt lat="52.36353" lon="6.85349">
        <time>2017-09-22T00:55:51Z</time>
      </trkpt>
      <trkpt lat="52.36389" lon="6.85326">
        <time>2017-09-22T00:55:53Z</time>
      </trkpt>
      <trkpt lat="52.36413" lon="6.85316">
        <time>2017-09-22T00:55:54Z</time>
      </trkpt>
      <trkpt lat="52.36481" lon="6.85299">
        <time>2017-09-22T00:55:57Z</time>
      </trkpt>
      <trkpt lat="52.36531" lon="6.85289">
        <time>2017-09-22T00:55:59Z</time>
      </trkpt>
      <trkpt lat="52.36595" lon="6.85276">
        <time>2017-09-22T00:56:01Z</time>
      </trkpt>
      <trkpt lat="52.36823" lon="6.85228">
        <time>2017-09-22T00:56:11Z</time>
      </trkpt>
      <trkpt lat="52.36869" lon="6.85219">
        <time>2017-09-22T00:56:13Z</time>
      </trkpt>
      <trkpt lat="52.3695" lon="6.85209">
        <time>2017-09-22T00:56:16Z</time>
      </trkpt>
      <trkpt lat="52.37042" lon="6.85205">
        <time>2017-09-22T00:56:20Z</time>
      </trkpt>
      <trkpt lat="52.37042" lon="6.85205">
        <time>2017-09-22T00:56:20Z</time>
      </trkpt>
      <trkpt lat="52.37187" lon="6.85198">
        <time>2017-09-22T00:56:26Z</time>
      </trkpt>
      <trkpt lat="52.37235" lon="6.85202">
        <time>2017-09-22T00:56:27Z</time>
      </trkpt>
      <trkpt lat="52.37255" lon="6.85197">
        <time>2017-09-22T00:56:28Z</time>
      </trkpt>
      <trkpt lat="52.37268" lon="6.8519">
        <time>2017-09-22T00:56:29Z</time>
      </trkpt>
      <trkpt lat="52.37292" lon="6.85181">
        <time>2017-09-22T00:56:30Z</time>
      </trkpt>
      <trkpt lat="52.37384" lon="6.85177">
        <time>2017-09-22T00:56:34Z</time>
      </trkpt>
      <trkpt lat="52.37489" lon="6.85173">
        <time>2017-09-22T00:56:38Z</time>
      </trkpt>
      <trkpt lat="52.37559" lon="6.85168">
        <time>2017-09-22T00:56:41Z</time>
      </trkpt>
      <trkpt lat="52.37675" lon="6.8516">
        <time>2017-09-22T00:56:45Z</time>
      </trkpt>
      <trkpt lat="52.37866" lon="6.85148">
        <time>2017-09-22T00:56:53Z</time>
      </trkpt>
      <trkpt lat="52.3789" lon="6.85154">
        <time>2017-09-22T00:56:54Z</time>
      </trkpt>
      <trkpt lat="52.3791" lon="6.85165">
        <time>2017-09-22T00:56:55Z</time>
      </trkpt>
      <trkpt lat="52.37925" lon="6.8518">
        <time>2017-09-22T00:56:56Z</time>
      </trkpt>
      <trkpt lat="52.37945" lon="6.85207">
        <time>2017-09-22T00:56:57Z</time>
      </trkpt>
      <trkpt lat="52.38001" lon="6.85304">
        <time>2017-09-22T00:57:00Z</time>
      </trkpt>
      <trkpt lat="52.38039" lon="6.85362">
        <time>2017-09-22T00:57:02Z</time>
      </trkpt>
      <trkpt lat="52.38107" lon="6.85458">
        <time>2017-09-22T00:57:06Z</time>
      </trkpt>
      <trkpt lat="52.38265" lon="6.85683">
        <time>2017-09-22T00:57:14Z</time>
      </trkpt>
      <trkpt lat="52.38304" lon="6.85739">
        <time>2017-09-22T00:57:16Z</time>
      </trkpt>
      <trkpt lat="52.38346" lon="6.85799">
        <time>2017-09-22T00:57:19Z</time>
      </trkpt>
      <trkpt lat="52.38419" lon="6.85894">
        <time>2017-09-22T00:57:22Z</time>
      </trkpt>
      <trkpt lat="52.38439" lon="6.85923">
        <time>2017-09-22T00:57:23Z</time>
      </trkpt>
      <trkpt lat="52.38453" lon="6.85953">
        <time>2017-09-22T00:57:24Z</time>
      </trkpt>
      <trkpt lat="52.38591" lon="6.86256">
        <time>2017-09-22T00:57:34Z</time>
      </trkpt>
      <trkpt lat="52.38682" lon="6.86453">
        <time>2017-09-22T00:57:40Z</time>
      </trkpt>
      <trkpt lat="52.38682" lon="6.86453">
        <time>2017-09-22T00:57:40Z</time>
      </trkpt>
      <trkpt lat="52.387" lon="6.86504">
        <time>2017-09-22T00:57:41Z</time>
      </trkpt>
      <trkpt lat="52.38709" lon="6.86537">
        <time>2017-09-22T00:57:42Z</time>
      </trkpt>
      <trkpt lat="52.38718" lon="6.86586">
        <time>2017-09-22T00:57:43Z</time>
      </trkpt>
      <trkpt lat="52.38737" lon="6.86713">
        <time>2017-09-22T00:57:47Z</time>
      </trkpt>
      <trkpt lat="52.38758" lon="6.86829">
        <time>2017-09-22T00:57:50Z</time>
      </trkpt>
      <trkpt lat="52.38777" lon="6.86892">
        <time>2017-09-22T00:57:51Z</time>
      </trkpt>
      <trkpt lat="52.38843" lon="6.87068">
        <time>2017-09-22T00:57:56Z</time>
      </trkpt>
      <trkpt lat="52.38856" lon="6.87117">
        <time>2017-09-22T00:57:58Z</time>
      </trkpt>
      <trkpt lat="52.38864" lon="6.87164">
        <time>2017-09-22T00:57:59Z</time>
      </trkpt>
      <trkpt lat="52.38866" lon="6.87202">
        <time>2017-09-22T00:58:00Z</time>
      </trkpt>
      <trkpt lat="52.38866" lon="6.87244">
        <time>2017-09-22T00:58:01Z</time>
      </trkpt>
      <trkpt lat="52.38851" lon="6.87431">
        <time>2017-09-22T00:58:06Z</time>
      </trkpt>
      <trkpt lat="52.38844" lon="6.87528">
        <time>2017-09-22T00:58:08Z</time>
      </trkpt>
      <trkpt lat="52.38842" lon="6.87589">
        <time>2017-09-22T00:58:10Z</time>
      </trkpt>
      <trkpt lat="52.38844" lon="6.87648">
        <time>2017-09-22T00:58:11Z</time>
      </trkpt>
      <trkpt lat="52.38872" lon="6.87882">
        <time>2017-09-22T00:58:17Z</time>
      </trkpt>
      <trkpt lat="52.38894" lon="6.8806">
        <time>2017-09-22T00:58:21Z</time>
      </trkpt>
      <trkpt lat="52.38894" lon="6.8806">
        <time>2017-09-22T00:58:21Z</time>
      </trkpt>
      <trkpt lat="52.38904" lon="6.88123">
        <time>2017-09-22T00:58:23Z</time>
      </trkpt>
      <trkpt lat="52.3892" lon="6.88187">
        <time>2017-09-22T00:58:25Z</time>
      </trkpt>
      <trkpt lat="52.38954" lon="6.88267">
        <time>2017-09-22T00:58:27Z</time>
      </trkpt>
      <trkpt lat="52.39018" lon="6.88406">
        <time>2017-09-22T00:58:31Z</time>
      </trkpt>
      <trkpt lat="52.39082" lon="6.88544">
        <time>2017-09-22T00:58:36Z</time>
      </trkpt>
      <trkpt lat="52.39106" lon="6.88586">
        <time>2017-09-22T00:58:37Z</time>
      </trkpt>
      <trkpt lat="52.39124" lon="6.8861">
        <time>2017-09-22T00:58:38Z</time>
      </trkpt>
      <trkpt lat="52.39147" lon="6.8863">
        <time>2017-09-22T00:58:39Z</time>
      </trkpt>
      <trkpt lat="52.39174" lon="6.8865">
        <time>2017-09-22T00:58:40Z</time>
      </trkpt>
      <trkpt lat="52.39207" lon="6.88669">
        <time>2017-09-22T00:58:42Z</time>
      </trkpt>
      <trkpt lat="52.39274" lon="6.88707">
        <time>2017-09-22T00:58:45Z</time>
      </trkpt>
      <trkpt lat="52.39308" lon="6.88722">
        <time>2017-09-22T00:58:46Z</time>
      </trkpt>
      <trkpt lat="52.39357" lon="6.88753">
        <time>2017-09-22T00:58:48Z</time>
      </trkpt>
      <trkpt lat="52.39367" lon="6.88758">
        <time>2017-09-22T00:58:49Z</time>
      </trkpt>
      <trkpt lat="52.39494" lon="6.88821">
        <time>2017-09-22T00:58:54Z</time>
      </trkpt>
      <trkpt lat="52.39633" lon="6.88878">
        <time>2017-09-22T00:59:00Z</time>
      </trkpt>
      <trkpt lat="52.39693" lon="6.88906">
        <time>2017-09-22T00:59:02Z</time>
      </trkpt>
      <trkpt lat="52.39721" lon="6.88931">
        <time>2017-09-22T00:59:04Z</time>
      </trkpt>
      <trkpt lat="52.39753" lon="6.8898">
        <time>2017-09-22T00:59:05Z</time>
      </trkpt>
      <trkpt lat="52.39898" lon="6.89206">
        <time>2017-09-22T00:59:13Z</time>
      </trkpt>
      <trkpt lat="52.39898" lon="6.89206">
        <time>2017-09-22T00:59:13Z</time>
      </trkpt>
      <trkpt lat="52.39958" lon="6.89298">
        <time>2017-09-22T00:59:17Z</time>
      </trkpt>
      <trkpt lat="52.40033" lon="6.89406">
        <time>2017-09-22T00:59:21Z</time>
      </trkpt>
      <trkpt lat="52.40103" lon="6.89502">
        <time>2017-09-22T00:59:25Z</time>
      </trkpt>
      <trkpt lat="52.40125" lon="6.89529">
        <time>2017-09-22T00:59:26Z</time>
      </trkpt>
      <trkpt lat="52.40143" lon="6.89546">
        <time>2017-09-22T00:59:26Z</time>
      </trkpt>
      <trkpt lat="52.4016" lon="6.89558">
        <time>2017-09-22T00:59:27Z</time>
      </trkpt>
      <trkpt lat="52.4018" lon="6.89567">
        <time>2017-09-22T00:59:28Z</time>
      </trkpt>
      <trkpt lat="52.40258" lon="6.89589">
        <time>2017-09-22T00:59:31Z</time>
      </trkpt>
      <trkpt lat="52.40314" lon="6.89602">
        <time>2017-09-22T00:59:34Z</time>
      </trkpt>
      <trkpt lat="52.40366" lon="6.89613">
        <time>2017-09-22T00:59:36Z</time>
      </trkpt>
      <trkpt lat="52.4038" lon="6.89624">
        <time>2017-09-22T00:59:36Z</time>
      </trkpt>
      <trkpt lat="52.4039" lon="6.89641">
        <time>2017-09-22T00:59:37Z</time>
      </trkpt>
      <trkpt lat="52.40372" lon="6.89654">
        <time>2017-09-22T00:59:38Z</time>
      </trkpt>
      <trkpt lat="52.40366" lon="6.89662">
        <time>2017-09-22T00:59:38Z</time>
      </trkpt>
      <trkpt lat="52.40353" lon="6.89687">
        <time>2017-09-22T00:59:39Z</time>
      </trkpt>
      <trkpt lat="52.40353" lon="6.89687">
        <time>2017-09-22T00:59:39Z</time>
      </trkpt>
      <trkpt lat="52.4034" lon="6.89708">
        <time>2017-09-22T00:59:40Z</time>
      </trkpt>
      <trkpt lat="52.4032" lon="6.89737">
        <time>2017-09-22T00:59:41Z</time>
      </trkpt>
      <trkpt lat="52.40291" lon="6.89769">
        <time>2017-09-22T00:59:42Z</time>
      </trkpt>
      <trkpt lat="52.40218" lon="6.8983">
        <time>2017-09-22T00:59:45Z</time>
      </trkpt>
      <trkpt lat="52.40136" lon="6.89924">
        <time>2017-09-22T00:59:49Z</time>
      </trkpt>
      <trkpt lat="52.40104" lon="6.89953">
        <time>2017-09-22T00:59:51Z</time>
      </trkpt>
      <trkpt lat="52.40101" lon="6.89954">
        <time>2017-09-22T00:59:51Z</time>
      </trkpt>
      <trkpt lat="52.40101" lon="6.89954">
        <time>2017-09-22T00:59:51Z</time>
      </trkpt>
      <trkpt lat="52.40097" lon="6.89955">
        <time>2017-09-22T00:59:51Z</time>
      </trkpt>
      <trkpt lat="52.40082" lon="6.89966">
        <time>2017-09-22T00:59:52Z</time>
      </trkpt>
      <trkpt lat="52.40068" lon="6.89972">
        <time>2017-09-22T00:59:52Z</time>
      </trkpt>
      <trkpt lat="52.40047" lon="6.89988">
        <time>2017-09-22T00:59:53Z</time>
      </trkpt>
      <trkpt lat="52.40035" lon="6.9">
        <time>2017-09-22T00:59:54Z</time>
      </trkpt>
      <trkpt lat="52.40023" lon="6.90015">
        <time>2017-09-22T00:59:55Z</time>
      </trkpt>
      <trkpt lat="52.40016" lon="6.9002">
        <time>2017-09-22T00:59:55Z</time>
      </trkpt>
      <trkpt lat="52.40016" lon="6.9002">
        <time>2017-09-22T00:59:55Z</time>
      </trkpt>
      <trkpt lat="52.40001" lon="6.90032">
        <time>2017-09-22T00:59:56Z</time>
      </trkpt>
      <trkpt lat="52.40007" lon="6.90062">
        <time>2017-09-22T00:59:56Z</time>
      </trkpt>
    </trkseg>
  </trk>
</gpx>

This is Sliced Diazo Plone Theme